<?xml version="1.0" encoding="UTF-8" standalone="no" ?>
<gpx xmlns="http://www.topografix.com/GPX/1/1" xmlns:xsi="http://www.w3.org/2001/XMLSchema-instance" xsi:schemaLocation="http://www.topografix.com/GPX/1/1 http://www.topografix.com/GPX/1/1/gpx.xsd" version="1.1" creator="VisuGPX - https://www.visugpx.com">
  <metadata>
    <name>Les guignes du Montaigu</name>
    <desc><![CDATA[Marche au départ de Bais, via la Beltière, le Montaigu, la Chainaie. Marche, château de Montesson.]]></desc>
  </metadata>
  <trk>
    <name><![CDATA[Les guignes]]></name>
    <trkseg>
      <trkpt lat="48.24866" lon="-0.3729">
        <ele>211.8</ele>
        <time>2013-07-08T07:04:55Z</time>
      </trkpt>
      <trkpt lat="48.24866" lon="-0.3729">
        <ele>255</ele>
        <time>2013-07-08T07:05:00Z</time>
      </trkpt>
      <trkpt lat="48.24863" lon="-0.3732">
        <ele>256</ele>
        <time>2013-07-08T07:05:44Z</time>
      </trkpt>
      <trkpt lat="48.24865" lon="-0.37338">
        <ele>256</ele>
        <time>2013-07-08T07:05:53Z</time>
      </trkpt>
      <trkpt lat="48.24865" lon="-0.37338">
        <ele>212.5</ele>
        <time>2013-07-08T07:06:01Z</time>
      </trkpt>
      <trkpt lat="48.24865" lon="-0.37338">
        <ele>212.5</ele>
        <time>2013-07-08T07:06:14Z</time>
      </trkpt>
      <trkpt lat="48.24861" lon="-0.37302">
        <ele>255</ele>
        <time>2013-07-08T07:06:14Z</time>
      </trkpt>
      <trkpt lat="48.24847" lon="-0.3729">
        <ele>254</ele>
        <time>2013-07-08T07:06:30Z</time>
      </trkpt>
      <trkpt lat="48.24836" lon="-0.37303">
        <ele>263</ele>
        <time>2013-07-08T07:06:42Z</time>
      </trkpt>
      <trkpt lat="48.24818" lon="-0.3732">
        <ele>266</ele>
        <time>2013-07-08T07:07:01Z</time>
      </trkpt>
      <trkpt lat="48.24799" lon="-0.37331">
        <ele>268</ele>
        <time>2013-07-08T07:07:18Z</time>
      </trkpt>
      <trkpt lat="48.2478" lon="-0.37332">
        <ele>271</ele>
        <time>2013-07-08T07:07:34Z</time>
      </trkpt>
      <trkpt lat="48.24762" lon="-0.37338">
        <ele>274</ele>
        <time>2013-07-08T07:07:49Z</time>
      </trkpt>
      <trkpt lat="48.24745" lon="-0.37336">
        <ele>273</ele>
        <time>2013-07-08T07:08:05Z</time>
      </trkpt>
      <trkpt lat="48.24735" lon="-0.37338">
        <ele>272</ele>
        <time>2013-07-08T07:08:14Z</time>
      </trkpt>
      <trkpt lat="48.24715" lon="-0.37341">
        <ele>274</ele>
        <time>2013-07-08T07:08:31Z</time>
      </trkpt>
      <trkpt lat="48.24706" lon="-0.37341">
        <ele>272</ele>
        <time>2013-07-08T07:08:37Z</time>
      </trkpt>
      <trkpt lat="48.24688" lon="-0.37344">
        <ele>280</ele>
        <time>2013-07-08T07:08:52Z</time>
      </trkpt>
      <trkpt lat="48.24669" lon="-0.37347">
        <ele>278</ele>
        <time>2013-07-08T07:09:09Z</time>
      </trkpt>
      <trkpt lat="48.24652" lon="-0.37351">
        <ele>280</ele>
        <time>2013-07-08T07:09:23Z</time>
      </trkpt>
      <trkpt lat="48.24639" lon="-0.37354">
        <ele>280</ele>
        <time>2013-07-08T07:09:34Z</time>
      </trkpt>
      <trkpt lat="48.24617" lon="-0.37356">
        <ele>278</ele>
        <time>2013-07-08T07:09:53Z</time>
      </trkpt>
      <trkpt lat="48.24601" lon="-0.37359">
        <ele>279</ele>
        <time>2013-07-08T07:10:07Z</time>
      </trkpt>
      <trkpt lat="48.24589" lon="-0.37361">
        <ele>279</ele>
        <time>2013-07-08T07:10:17Z</time>
      </trkpt>
      <trkpt lat="48.24574" lon="-0.37364">
        <ele>275</ele>
        <time>2013-07-08T07:10:30Z</time>
      </trkpt>
      <trkpt lat="48.24552" lon="-0.37369">
        <ele>279</ele>
        <time>2013-07-08T07:10:49Z</time>
      </trkpt>
      <trkpt lat="48.24533" lon="-0.37372">
        <ele>280</ele>
        <time>2013-07-08T07:11:03Z</time>
      </trkpt>
      <trkpt lat="48.24524" lon="-0.37374">
        <ele>278</ele>
        <time>2013-07-08T07:11:11Z</time>
      </trkpt>
      <trkpt lat="48.24506" lon="-0.37379">
        <ele>281</ele>
        <time>2013-07-08T07:11:30Z</time>
      </trkpt>
      <trkpt lat="48.24484" lon="-0.37384">
        <ele>280</ele>
        <time>2013-07-08T07:11:49Z</time>
      </trkpt>
      <trkpt lat="48.24463" lon="-0.37386">
        <ele>284</ele>
        <time>2013-07-08T07:12:04Z</time>
      </trkpt>
      <trkpt lat="48.24449" lon="-0.37386">
        <ele>296</ele>
        <time>2013-07-08T07:12:17Z</time>
      </trkpt>
      <trkpt lat="48.24435" lon="-0.37385">
        <ele>281</ele>
        <time>2013-07-08T07:12:29Z</time>
      </trkpt>
      <trkpt lat="48.24422" lon="-0.37381">
        <ele>281</ele>
        <time>2013-07-08T07:12:40Z</time>
      </trkpt>
      <trkpt lat="48.24392" lon="-0.37383">
        <ele>285</ele>
        <time>2013-07-08T07:13:16Z</time>
      </trkpt>
      <trkpt lat="48.24376" lon="-0.37386">
        <ele>288</ele>
        <time>2013-07-08T07:13:30Z</time>
      </trkpt>
      <trkpt lat="48.24356" lon="-0.37389">
        <ele>286</ele>
        <time>2013-07-08T07:13:46Z</time>
      </trkpt>
      <trkpt lat="48.2434" lon="-0.37393">
        <ele>289</ele>
        <time>2013-07-08T07:14:00Z</time>
      </trkpt>
      <trkpt lat="48.24324" lon="-0.37397">
        <ele>283</ele>
        <time>2013-07-08T07:14:16Z</time>
      </trkpt>
      <trkpt lat="48.24308" lon="-0.37403">
        <ele>291</ele>
        <time>2013-07-08T07:14:33Z</time>
      </trkpt>
      <trkpt lat="48.24285" lon="-0.37405">
        <ele>295</ele>
        <time>2013-07-08T07:14:52Z</time>
      </trkpt>
      <trkpt lat="48.24275" lon="-0.37405">
        <ele>294</ele>
        <time>2013-07-08T07:15:01Z</time>
      </trkpt>
      <trkpt lat="48.2426" lon="-0.37406">
        <ele>288</ele>
        <time>2013-07-08T07:15:14Z</time>
      </trkpt>
      <trkpt lat="48.24249" lon="-0.37407">
        <ele>289</ele>
        <time>2013-07-08T07:15:23Z</time>
      </trkpt>
      <trkpt lat="48.24234" lon="-0.37414">
        <ele>293</ele>
        <time>2013-07-08T07:15:36Z</time>
      </trkpt>
      <trkpt lat="48.24214" lon="-0.37447">
        <ele>303</ele>
        <time>2013-07-08T07:16:11Z</time>
      </trkpt>
      <trkpt lat="48.24214" lon="-0.37447">
        <ele>303</ele>
        <time>2013-07-08T07:16:18Z</time>
      </trkpt>
      <trkpt lat="48.24214" lon="-0.37447">
        <ele>255.3</ele>
        <time>2013-07-08T07:16:18Z</time>
      </trkpt>
      <trkpt lat="48.24214" lon="-0.37447">
        <ele>255.3</ele>
        <time>2013-07-08T07:16:29Z</time>
      </trkpt>
      <trkpt lat="48.24199" lon="-0.37468">
        <ele>306</ele>
        <time>2013-07-08T07:16:29Z</time>
      </trkpt>
      <trkpt lat="48.24187" lon="-0.3748">
        <ele>301</ele>
        <time>2013-07-08T07:16:39Z</time>
      </trkpt>
      <trkpt lat="48.24178" lon="-0.37494">
        <ele>301</ele>
        <time>2013-07-08T07:16:49Z</time>
      </trkpt>
      <trkpt lat="48.24165" lon="-0.37524">
        <ele>305</ele>
        <time>2013-07-08T07:17:07Z</time>
      </trkpt>
      <trkpt lat="48.24158" lon="-0.37542">
        <ele>309</ele>
        <time>2013-07-08T07:17:20Z</time>
      </trkpt>
      <trkpt lat="48.24148" lon="-0.37564">
        <ele>308</ele>
        <time>2013-07-08T07:17:33Z</time>
      </trkpt>
      <trkpt lat="48.2414" lon="-0.37583">
        <ele>307</ele>
        <time>2013-07-08T07:17:46Z</time>
      </trkpt>
      <trkpt lat="48.24131" lon="-0.37606">
        <ele>308</ele>
        <time>2013-07-08T07:18:03Z</time>
      </trkpt>
      <trkpt lat="48.24123" lon="-0.37622">
        <ele>308</ele>
        <time>2013-07-08T07:18:14Z</time>
      </trkpt>
      <trkpt lat="48.24109" lon="-0.37638">
        <ele>310</ele>
        <time>2013-07-08T07:18:28Z</time>
      </trkpt>
      <trkpt lat="48.241" lon="-0.37649">
        <ele>310</ele>
        <time>2013-07-08T07:18:38Z</time>
      </trkpt>
      <trkpt lat="48.2409" lon="-0.3766">
        <ele>305</ele>
        <time>2013-07-08T07:18:51Z</time>
      </trkpt>
      <trkpt lat="48.2408" lon="-0.37687">
        <ele>315</ele>
        <time>2013-07-08T07:19:10Z</time>
      </trkpt>
      <trkpt lat="48.24063" lon="-0.37708">
        <ele>315</ele>
        <time>2013-07-08T07:19:26Z</time>
      </trkpt>
      <trkpt lat="48.24051" lon="-0.37721">
        <ele>316</ele>
        <time>2013-07-08T07:19:39Z</time>
      </trkpt>
      <trkpt lat="48.24038" lon="-0.37733">
        <ele>314</ele>
        <time>2013-07-08T07:19:51Z</time>
      </trkpt>
      <trkpt lat="48.24026" lon="-0.3774">
        <ele>310</ele>
        <time>2013-07-08T07:20:05Z</time>
      </trkpt>
      <trkpt lat="48.24009" lon="-0.37749">
        <ele>315</ele>
        <time>2013-07-08T07:20:17Z</time>
      </trkpt>
      <trkpt lat="48.23995" lon="-0.37758">
        <ele>318</ele>
        <time>2013-07-08T07:20:30Z</time>
      </trkpt>
      <trkpt lat="48.23977" lon="-0.37768">
        <ele>312</ele>
        <time>2013-07-08T07:20:48Z</time>
      </trkpt>
      <trkpt lat="48.23952" lon="-0.37781">
        <ele>312</ele>
        <time>2013-07-08T07:21:04Z</time>
      </trkpt>
      <trkpt lat="48.23945" lon="-0.37789">
        <ele>306</ele>
        <time>2013-07-08T07:21:12Z</time>
      </trkpt>
      <trkpt lat="48.23932" lon="-0.37795">
        <ele>309</ele>
        <time>2013-07-08T07:21:25Z</time>
      </trkpt>
      <trkpt lat="48.23926" lon="-0.37809">
        <ele>304</ele>
        <time>2013-07-08T07:21:37Z</time>
      </trkpt>
      <trkpt lat="48.2392" lon="-0.37821">
        <ele>315</ele>
        <time>2013-07-08T07:21:47Z</time>
      </trkpt>
      <trkpt lat="48.23908" lon="-0.37836">
        <ele>310</ele>
        <time>2013-07-08T07:22:01Z</time>
      </trkpt>
      <trkpt lat="48.2389" lon="-0.37855">
        <ele>299</ele>
        <time>2013-07-08T07:22:16Z</time>
      </trkpt>
      <trkpt lat="48.2388" lon="-0.37882">
        <ele>307</ele>
        <time>2013-07-08T07:22:33Z</time>
      </trkpt>
      <trkpt lat="48.23873" lon="-0.37912">
        <ele>299</ele>
        <time>2013-07-08T07:22:50Z</time>
      </trkpt>
      <trkpt lat="48.23865" lon="-0.37934">
        <ele>303</ele>
        <time>2013-07-08T07:23:03Z</time>
      </trkpt>
      <trkpt lat="48.23854" lon="-0.3796">
        <ele>297</ele>
        <time>2013-07-08T07:23:20Z</time>
      </trkpt>
      <trkpt lat="48.23848" lon="-0.37982">
        <ele>297</ele>
        <time>2013-07-08T07:23:33Z</time>
      </trkpt>
      <trkpt lat="48.23843" lon="-0.37999">
        <ele>296</ele>
        <time>2013-07-08T07:23:42Z</time>
      </trkpt>
      <trkpt lat="48.23842" lon="-0.38014">
        <ele>299</ele>
        <time>2013-07-08T07:23:51Z</time>
      </trkpt>
      <trkpt lat="48.23837" lon="-0.38034">
        <ele>296</ele>
        <time>2013-07-08T07:24:02Z</time>
      </trkpt>
      <trkpt lat="48.23832" lon="-0.38056">
        <ele>298</ele>
        <time>2013-07-08T07:24:17Z</time>
      </trkpt>
      <trkpt lat="48.23825" lon="-0.38089">
        <ele>295</ele>
        <time>2013-07-08T07:24:36Z</time>
      </trkpt>
      <trkpt lat="48.23816" lon="-0.38119">
        <ele>290</ele>
        <time>2013-07-08T07:24:53Z</time>
      </trkpt>
      <trkpt lat="48.23812" lon="-0.38146">
        <ele>299</ele>
        <time>2013-07-08T07:25:08Z</time>
      </trkpt>
      <trkpt lat="48.23805" lon="-0.3816">
        <ele>297</ele>
        <time>2013-07-08T07:25:17Z</time>
      </trkpt>
      <trkpt lat="48.23796" lon="-0.38181">
        <ele>304</ele>
        <time>2013-07-08T07:25:30Z</time>
      </trkpt>
      <trkpt lat="48.23784" lon="-0.38197">
        <ele>297</ele>
        <time>2013-07-08T07:25:42Z</time>
      </trkpt>
      <trkpt lat="48.23776" lon="-0.38212">
        <ele>309</ele>
        <time>2013-07-08T07:25:54Z</time>
      </trkpt>
      <trkpt lat="48.23763" lon="-0.38222">
        <ele>303</ele>
        <time>2013-07-08T07:26:07Z</time>
      </trkpt>
      <trkpt lat="48.23755" lon="-0.38242">
        <ele>306</ele>
        <time>2013-07-08T07:26:19Z</time>
      </trkpt>
      <trkpt lat="48.23753" lon="-0.38249">
        <ele>309</ele>
        <time>2013-07-08T07:26:26Z</time>
      </trkpt>
      <trkpt lat="48.23741" lon="-0.38268">
        <ele>309</ele>
        <time>2013-07-08T07:26:41Z</time>
      </trkpt>
      <trkpt lat="48.23734" lon="-0.38278">
        <ele>305</ele>
        <time>2013-07-08T07:26:49Z</time>
      </trkpt>
      <trkpt lat="48.23722" lon="-0.38295">
        <ele>311</ele>
        <time>2013-07-08T07:27:06Z</time>
      </trkpt>
      <trkpt lat="48.23713" lon="-0.38307">
        <ele>304</ele>
        <time>2013-07-08T07:27:16Z</time>
      </trkpt>
      <trkpt lat="48.23702" lon="-0.38336">
        <ele>300</ele>
        <time>2013-07-08T07:27:36Z</time>
      </trkpt>
      <trkpt lat="48.23686" lon="-0.38364">
        <ele>300</ele>
        <time>2013-07-08T07:27:55Z</time>
      </trkpt>
      <trkpt lat="48.23675" lon="-0.38386">
        <ele>305</ele>
        <time>2013-07-08T07:28:11Z</time>
      </trkpt>
      <trkpt lat="48.23667" lon="-0.38401">
        <ele>304</ele>
        <time>2013-07-08T07:28:22Z</time>
      </trkpt>
      <trkpt lat="48.23658" lon="-0.38417">
        <ele>299</ele>
        <time>2013-07-08T07:28:35Z</time>
      </trkpt>
      <trkpt lat="48.23645" lon="-0.38432">
        <ele>291</ele>
        <time>2013-07-08T07:28:43Z</time>
      </trkpt>
      <trkpt lat="48.23639" lon="-0.3844">
        <ele>294</ele>
        <time>2013-07-08T07:28:48Z</time>
      </trkpt>
      <trkpt lat="48.23635" lon="-0.38446">
        <ele>298</ele>
        <time>2013-07-08T07:28:52Z</time>
      </trkpt>
      <trkpt lat="48.23635" lon="-0.38446">
        <ele>248.8</ele>
        <time>2013-07-08T07:28:59Z</time>
      </trkpt>
      <trkpt lat="48.23635" lon="-0.38446">
        <ele>248.8</ele>
        <time>2013-07-08T07:29:04Z</time>
      </trkpt>
      <trkpt lat="48.23627" lon="-0.38459">
        <ele>292</ele>
        <time>2013-07-08T07:29:04Z</time>
      </trkpt>
      <trkpt lat="48.23615" lon="-0.38467">
        <ele>294</ele>
        <time>2013-07-08T07:29:14Z</time>
      </trkpt>
      <trkpt lat="48.23602" lon="-0.38479">
        <ele>293</ele>
        <time>2013-07-08T07:29:24Z</time>
      </trkpt>
      <trkpt lat="48.23593" lon="-0.38486">
        <ele>292</ele>
        <time>2013-07-08T07:29:35Z</time>
      </trkpt>
      <trkpt lat="48.23585" lon="-0.38499">
        <ele>293</ele>
        <time>2013-07-08T07:29:44Z</time>
      </trkpt>
      <trkpt lat="48.23576" lon="-0.38506">
        <ele>288</ele>
        <time>2013-07-08T07:29:52Z</time>
      </trkpt>
      <trkpt lat="48.23568" lon="-0.38516">
        <ele>289</ele>
        <time>2013-07-08T07:30:02Z</time>
      </trkpt>
      <trkpt lat="48.2355" lon="-0.38537">
        <ele>292</ele>
        <time>2013-07-08T07:30:23Z</time>
      </trkpt>
      <trkpt lat="48.23535" lon="-0.38553">
        <ele>296</ele>
        <time>2013-07-08T07:30:40Z</time>
      </trkpt>
      <trkpt lat="48.23526" lon="-0.38562">
        <ele>294</ele>
        <time>2013-07-08T07:30:48Z</time>
      </trkpt>
      <trkpt lat="48.23517" lon="-0.38575">
        <ele>294</ele>
        <time>2013-07-08T07:31:03Z</time>
      </trkpt>
      <trkpt lat="48.23497" lon="-0.38588">
        <ele>291</ele>
        <time>2013-07-08T07:31:19Z</time>
      </trkpt>
      <trkpt lat="48.23491" lon="-0.38599">
        <ele>300</ele>
        <time>2013-07-08T07:31:30Z</time>
      </trkpt>
      <trkpt lat="48.23471" lon="-0.38611">
        <ele>292</ele>
        <time>2013-07-08T07:31:46Z</time>
      </trkpt>
      <trkpt lat="48.23461" lon="-0.38625">
        <ele>297</ele>
        <time>2013-07-08T07:31:56Z</time>
      </trkpt>
      <trkpt lat="48.23446" lon="-0.38636">
        <ele>297</ele>
        <time>2013-07-08T07:32:08Z</time>
      </trkpt>
      <trkpt lat="48.23425" lon="-0.38643">
        <ele>283</ele>
        <time>2013-07-08T07:32:23Z</time>
      </trkpt>
      <trkpt lat="48.23419" lon="-0.38666">
        <ele>281</ele>
        <time>2013-07-08T07:32:37Z</time>
      </trkpt>
      <trkpt lat="48.23411" lon="-0.38693">
        <ele>289</ele>
        <time>2013-07-08T07:32:54Z</time>
      </trkpt>
      <trkpt lat="48.23406" lon="-0.38716">
        <ele>288</ele>
        <time>2013-07-08T07:33:11Z</time>
      </trkpt>
      <trkpt lat="48.23398" lon="-0.38736">
        <ele>301</ele>
        <time>2013-07-08T07:33:27Z</time>
      </trkpt>
      <trkpt lat="48.23385" lon="-0.38755">
        <ele>290</ele>
        <time>2013-07-08T07:33:48Z</time>
      </trkpt>
      <trkpt lat="48.23378" lon="-0.38778">
        <ele>288</ele>
        <time>2013-07-08T07:34:03Z</time>
      </trkpt>
      <trkpt lat="48.23369" lon="-0.38796">
        <ele>285</ele>
        <time>2013-07-08T07:34:14Z</time>
      </trkpt>
      <trkpt lat="48.23369" lon="-0.38796">
        <ele>285</ele>
        <time>2013-07-08T07:34:19Z</time>
      </trkpt>
      <trkpt lat="48.23369" lon="-0.38796">
        <ele>233.6</ele>
        <time>2013-07-08T07:34:19Z</time>
      </trkpt>
      <trkpt lat="48.23369" lon="-0.38796">
        <ele>233.6</ele>
        <time>2013-07-08T07:34:38Z</time>
      </trkpt>
      <trkpt lat="48.23362" lon="-0.38827">
        <ele>278</ele>
        <time>2013-07-08T07:34:38Z</time>
      </trkpt>
      <trkpt lat="48.2336" lon="-0.38853">
        <ele>277</ele>
        <time>2013-07-08T07:34:53Z</time>
      </trkpt>
      <trkpt lat="48.23354" lon="-0.38881">
        <ele>282</ele>
        <time>2013-07-08T07:35:04Z</time>
      </trkpt>
      <trkpt lat="48.2335" lon="-0.38901">
        <ele>285</ele>
        <time>2013-07-08T07:35:19Z</time>
      </trkpt>
      <trkpt lat="48.23345" lon="-0.3892">
        <ele>282</ele>
        <time>2013-07-08T07:35:28Z</time>
      </trkpt>
      <trkpt lat="48.23332" lon="-0.38941">
        <ele>280</ele>
        <time>2013-07-08T07:35:40Z</time>
      </trkpt>
      <trkpt lat="48.2332" lon="-0.3897">
        <ele>274</ele>
        <time>2013-07-08T07:35:58Z</time>
      </trkpt>
      <trkpt lat="48.2332" lon="-0.3897">
        <ele>274</ele>
        <time>2013-07-08T07:36:05Z</time>
      </trkpt>
      <trkpt lat="48.2332" lon="-0.3897">
        <ele>230.4</ele>
        <time>2013-07-08T07:36:05Z</time>
      </trkpt>
      <trkpt lat="48.2332" lon="-0.3897">
        <ele>230.4</ele>
        <time>2013-07-08T07:40:00Z</time>
      </trkpt>
      <trkpt lat="48.23304" lon="-0.38999">
        <ele>274</ele>
        <time>2013-07-08T07:40:00Z</time>
      </trkpt>
      <trkpt lat="48.23297" lon="-0.39014">
        <ele>279</ele>
        <time>2013-07-08T07:40:12Z</time>
      </trkpt>
      <trkpt lat="48.23297" lon="-0.39014">
        <ele>230.2</ele>
        <time>2013-07-08T07:40:20Z</time>
      </trkpt>
      <trkpt lat="48.23297" lon="-0.39014">
        <ele>230.2</ele>
        <time>2013-07-08T07:40:30Z</time>
      </trkpt>
      <trkpt lat="48.23274" lon="-0.39061">
        <ele>268</ele>
        <time>2013-07-08T07:41:14Z</time>
      </trkpt>
      <trkpt lat="48.23265" lon="-0.39073">
        <ele>277</ele>
        <time>2013-07-08T07:41:26Z</time>
      </trkpt>
      <trkpt lat="48.2326" lon="-0.39088">
        <ele>267</ele>
        <time>2013-07-08T07:41:36Z</time>
      </trkpt>
      <trkpt lat="48.23254" lon="-0.39113">
        <ele>283</ele>
        <time>2013-07-08T07:41:54Z</time>
      </trkpt>
      <trkpt lat="48.23241" lon="-0.39135">
        <ele>286</ele>
        <time>2013-07-08T07:42:09Z</time>
      </trkpt>
      <trkpt lat="48.23232" lon="-0.3916">
        <ele>285</ele>
        <time>2013-07-08T07:42:24Z</time>
      </trkpt>
      <trkpt lat="48.23224" lon="-0.3918">
        <ele>282</ele>
        <time>2013-07-08T07:42:37Z</time>
      </trkpt>
      <trkpt lat="48.2321" lon="-0.39207">
        <ele>279</ele>
        <time>2013-07-08T07:42:54Z</time>
      </trkpt>
      <trkpt lat="48.23195" lon="-0.39222">
        <ele>281</ele>
        <time>2013-07-08T07:43:06Z</time>
      </trkpt>
      <trkpt lat="48.23181" lon="-0.39227">
        <ele>278</ele>
        <time>2013-07-08T07:43:18Z</time>
      </trkpt>
      <trkpt lat="48.23175" lon="-0.39231">
        <ele>277</ele>
        <time>2013-07-08T07:43:24Z</time>
      </trkpt>
      <trkpt lat="48.23175" lon="-0.39231">
        <ele>227.7</ele>
        <time>2013-07-08T07:43:34Z</time>
      </trkpt>
      <trkpt lat="48.23175" lon="-0.39231">
        <ele>227.7</ele>
        <time>2013-07-08T07:44:23Z</time>
      </trkpt>
      <trkpt lat="48.23154" lon="-0.39262">
        <ele>263</ele>
        <time>2013-07-08T07:44:23Z</time>
      </trkpt>
      <trkpt lat="48.2314" lon="-0.39276">
        <ele>269</ele>
        <time>2013-07-08T07:44:38Z</time>
      </trkpt>
      <trkpt lat="48.23133" lon="-0.39289">
        <ele>275</ele>
        <time>2013-07-08T07:44:48Z</time>
      </trkpt>
      <trkpt lat="48.23129" lon="-0.39298">
        <ele>275</ele>
        <time>2013-07-08T07:44:54Z</time>
      </trkpt>
      <trkpt lat="48.23129" lon="-0.39298">
        <ele>226</ele>
        <time>2013-07-08T07:45:00Z</time>
      </trkpt>
      <trkpt lat="48.23129" lon="-0.39298">
        <ele>226</ele>
        <time>2013-07-08T07:45:07Z</time>
      </trkpt>
      <trkpt lat="48.23125" lon="-0.39306">
        <ele>272</ele>
        <time>2013-07-08T07:45:07Z</time>
      </trkpt>
      <trkpt lat="48.23109" lon="-0.39326">
        <ele>269</ele>
        <time>2013-07-08T07:45:23Z</time>
      </trkpt>
      <trkpt lat="48.23095" lon="-0.39344">
        <ele>277</ele>
        <time>2013-07-08T07:45:40Z</time>
      </trkpt>
      <trkpt lat="48.2308" lon="-0.39362">
        <ele>269</ele>
        <time>2013-07-08T07:45:56Z</time>
      </trkpt>
      <trkpt lat="48.23062" lon="-0.39383">
        <ele>272</ele>
        <time>2013-07-08T07:46:14Z</time>
      </trkpt>
      <trkpt lat="48.23047" lon="-0.394">
        <ele>270</ele>
        <time>2013-07-08T07:46:30Z</time>
      </trkpt>
      <trkpt lat="48.23031" lon="-0.39412">
        <ele>271</ele>
        <time>2013-07-08T07:46:44Z</time>
      </trkpt>
      <trkpt lat="48.23023" lon="-0.39419">
        <ele>270</ele>
        <time>2013-07-08T07:46:52Z</time>
      </trkpt>
      <trkpt lat="48.23013" lon="-0.39437">
        <ele>274</ele>
        <time>2013-07-08T07:47:09Z</time>
      </trkpt>
      <trkpt lat="48.23015" lon="-0.39444">
        <ele>272</ele>
        <time>2013-07-08T07:47:14Z</time>
      </trkpt>
      <trkpt lat="48.23015" lon="-0.39444">
        <ele>227.5</ele>
        <time>2013-07-08T07:47:21Z</time>
      </trkpt>
      <trkpt lat="48.23015" lon="-0.39444">
        <ele>227.5</ele>
        <time>2013-07-08T07:47:27Z</time>
      </trkpt>
      <trkpt lat="48.23016" lon="-0.39451">
        <ele>273</ele>
        <time>2013-07-08T07:47:27Z</time>
      </trkpt>
      <trkpt lat="48.23025" lon="-0.39472">
        <ele>272</ele>
        <time>2013-07-08T07:47:42Z</time>
      </trkpt>
      <trkpt lat="48.23032" lon="-0.3949">
        <ele>275</ele>
        <time>2013-07-08T07:47:54Z</time>
      </trkpt>
      <trkpt lat="48.23035" lon="-0.39509">
        <ele>273</ele>
        <time>2013-07-08T07:48:04Z</time>
      </trkpt>
      <trkpt lat="48.2304" lon="-0.39541">
        <ele>268</ele>
        <time>2013-07-08T07:48:24Z</time>
      </trkpt>
      <trkpt lat="48.2304" lon="-0.39553">
        <ele>276</ele>
        <time>2013-07-08T07:48:30Z</time>
      </trkpt>
      <trkpt lat="48.2304" lon="-0.39553">
        <ele>226.9</ele>
        <time>2013-07-08T07:48:37Z</time>
      </trkpt>
      <trkpt lat="48.2304" lon="-0.39553">
        <ele>226.9</ele>
        <time>2013-07-08T07:48:44Z</time>
      </trkpt>
      <trkpt lat="48.23044" lon="-0.39561">
        <ele>279</ele>
        <time>2013-07-08T07:48:44Z</time>
      </trkpt>
      <trkpt lat="48.23053" lon="-0.39591">
        <ele>280</ele>
        <time>2013-07-08T07:49:01Z</time>
      </trkpt>
      <trkpt lat="48.23062" lon="-0.39618">
        <ele>283</ele>
        <time>2013-07-08T07:49:20Z</time>
      </trkpt>
      <trkpt lat="48.2307" lon="-0.39644">
        <ele>279</ele>
        <time>2013-07-08T07:49:41Z</time>
      </trkpt>
      <trkpt lat="48.23084" lon="-0.39678">
        <ele>275</ele>
        <time>2013-07-08T07:49:57Z</time>
      </trkpt>
      <trkpt lat="48.23092" lon="-0.39705">
        <ele>277</ele>
        <time>2013-07-08T07:50:14Z</time>
      </trkpt>
      <trkpt lat="48.23092" lon="-0.39705">
        <ele>277</ele>
        <time>2013-07-08T07:50:21Z</time>
      </trkpt>
      <trkpt lat="48.23092" lon="-0.39705">
        <ele>226.4</ele>
        <time>2013-07-08T07:50:21Z</time>
      </trkpt>
      <trkpt lat="48.23092" lon="-0.39705">
        <ele>226.4</ele>
        <time>2013-07-08T07:50:34Z</time>
      </trkpt>
      <trkpt lat="48.231" lon="-0.3972">
        <ele>279</ele>
        <time>2013-07-08T07:50:34Z</time>
      </trkpt>
      <trkpt lat="48.23111" lon="-0.39746">
        <ele>269</ele>
        <time>2013-07-08T07:50:52Z</time>
      </trkpt>
      <trkpt lat="48.23113" lon="-0.39754">
        <ele>272</ele>
        <time>2013-07-08T07:50:57Z</time>
      </trkpt>
      <trkpt lat="48.23113" lon="-0.39754">
        <ele>227.1</ele>
        <time>2013-07-08T07:51:04Z</time>
      </trkpt>
      <trkpt lat="48.23113" lon="-0.39754">
        <ele>227.1</ele>
        <time>2013-07-08T07:51:11Z</time>
      </trkpt>
      <trkpt lat="48.23115" lon="-0.39766">
        <ele>276</ele>
        <time>2013-07-08T07:51:11Z</time>
      </trkpt>
      <trkpt lat="48.23116" lon="-0.39793">
        <ele>279</ele>
        <time>2013-07-08T07:51:28Z</time>
      </trkpt>
      <trkpt lat="48.23121" lon="-0.39817">
        <ele>272</ele>
        <time>2013-07-08T07:51:40Z</time>
      </trkpt>
      <trkpt lat="48.23122" lon="-0.39845">
        <ele>272</ele>
        <time>2013-07-08T07:51:56Z</time>
      </trkpt>
      <trkpt lat="48.23126" lon="-0.39876">
        <ele>272</ele>
        <time>2013-07-08T07:52:13Z</time>
      </trkpt>
      <trkpt lat="48.2313" lon="-0.39905">
        <ele>274</ele>
        <time>2013-07-08T07:52:30Z</time>
      </trkpt>
      <trkpt lat="48.2313" lon="-0.39929">
        <ele>269</ele>
        <time>2013-07-08T07:52:44Z</time>
      </trkpt>
      <trkpt lat="48.23131" lon="-0.39942">
        <ele>277</ele>
        <time>2013-07-08T07:52:49Z</time>
      </trkpt>
      <trkpt lat="48.23131" lon="-0.39942">
        <ele>229.9</ele>
        <time>2013-07-08T07:52:54Z</time>
      </trkpt>
      <trkpt lat="48.23131" lon="-0.39942">
        <ele>229.9</ele>
        <time>2013-07-08T07:53:01Z</time>
      </trkpt>
      <trkpt lat="48.23134" lon="-0.39956">
        <ele>278</ele>
        <time>2013-07-08T07:53:01Z</time>
      </trkpt>
      <trkpt lat="48.23141" lon="-0.39996">
        <ele>278</ele>
        <time>2013-07-08T07:53:23Z</time>
      </trkpt>
      <trkpt lat="48.23142" lon="-0.40002">
        <ele>274</ele>
        <time>2013-07-08T07:53:30Z</time>
      </trkpt>
      <trkpt lat="48.23142" lon="-0.40002">
        <ele>230.5</ele>
        <time>2013-07-08T07:53:40Z</time>
      </trkpt>
      <trkpt lat="48.23142" lon="-0.40002">
        <ele>230.5</ele>
        <time>2013-07-08T07:54:16Z</time>
      </trkpt>
      <trkpt lat="48.23152" lon="-0.40025">
        <ele>281</ele>
        <time>2013-07-08T07:54:16Z</time>
      </trkpt>
      <trkpt lat="48.2316" lon="-0.40046">
        <ele>276</ele>
        <time>2013-07-08T07:54:30Z</time>
      </trkpt>
      <trkpt lat="48.23158" lon="-0.40068">
        <ele>274</ele>
        <time>2013-07-08T07:54:42Z</time>
      </trkpt>
      <trkpt lat="48.23163" lon="-0.40091">
        <ele>272</ele>
        <time>2013-07-08T07:54:55Z</time>
      </trkpt>
      <trkpt lat="48.23166" lon="-0.40114">
        <ele>271</ele>
        <time>2013-07-08T07:55:09Z</time>
      </trkpt>
      <trkpt lat="48.23176" lon="-0.40138">
        <ele>275</ele>
        <time>2013-07-08T07:55:24Z</time>
      </trkpt>
      <trkpt lat="48.23186" lon="-0.40165">
        <ele>271</ele>
        <time>2013-07-08T07:55:41Z</time>
      </trkpt>
      <trkpt lat="48.23192" lon="-0.40177">
        <ele>275</ele>
        <time>2013-07-08T07:55:49Z</time>
      </trkpt>
      <trkpt lat="48.23199" lon="-0.40197">
        <ele>280</ele>
        <time>2013-07-08T07:56:01Z</time>
      </trkpt>
      <trkpt lat="48.23207" lon="-0.40218">
        <ele>277</ele>
        <time>2013-07-08T07:56:13Z</time>
      </trkpt>
      <trkpt lat="48.23222" lon="-0.40245">
        <ele>277</ele>
        <time>2013-07-08T07:56:30Z</time>
      </trkpt>
      <trkpt lat="48.23229" lon="-0.40271">
        <ele>271</ele>
        <time>2013-07-08T07:56:47Z</time>
      </trkpt>
      <trkpt lat="48.2324" lon="-0.40286">
        <ele>273</ele>
        <time>2013-07-08T07:56:56Z</time>
      </trkpt>
      <trkpt lat="48.2324" lon="-0.40286">
        <ele>228.8</ele>
        <time>2013-07-08T07:57:03Z</time>
      </trkpt>
      <trkpt lat="48.2324" lon="-0.40286">
        <ele>228.8</ele>
        <time>2013-07-08T07:57:42Z</time>
      </trkpt>
      <trkpt lat="48.23257" lon="-0.40307">
        <ele>283</ele>
        <time>2013-07-08T07:57:42Z</time>
      </trkpt>
      <trkpt lat="48.2327" lon="-0.40321">
        <ele>277</ele>
        <time>2013-07-08T07:57:57Z</time>
      </trkpt>
      <trkpt lat="48.2328" lon="-0.40343">
        <ele>278</ele>
        <time>2013-07-08T07:58:11Z</time>
      </trkpt>
      <trkpt lat="48.2328" lon="-0.40343">
        <ele>278</ele>
        <time>2013-07-08T07:58:19Z</time>
      </trkpt>
      <trkpt lat="48.2328" lon="-0.40343">
        <ele>229.6</ele>
        <time>2013-07-08T07:58:19Z</time>
      </trkpt>
      <trkpt lat="48.2328" lon="-0.40343">
        <ele>229.6</ele>
        <time>2013-07-08T07:58:29Z</time>
      </trkpt>
      <trkpt lat="48.2328" lon="-0.40364">
        <ele>274</ele>
        <time>2013-07-08T07:58:29Z</time>
      </trkpt>
      <trkpt lat="48.23283" lon="-0.40379">
        <ele>274</ele>
        <time>2013-07-08T07:58:39Z</time>
      </trkpt>
      <trkpt lat="48.23295" lon="-0.40406">
        <ele>277</ele>
        <time>2013-07-08T07:58:55Z</time>
      </trkpt>
      <trkpt lat="48.23297" lon="-0.40429">
        <ele>273</ele>
        <time>2013-07-08T07:59:11Z</time>
      </trkpt>
      <trkpt lat="48.23307" lon="-0.40454">
        <ele>272</ele>
        <time>2013-07-08T07:59:29Z</time>
      </trkpt>
      <trkpt lat="48.23307" lon="-0.40485">
        <ele>273</ele>
        <time>2013-07-08T07:59:45Z</time>
      </trkpt>
      <trkpt lat="48.23309" lon="-0.40505">
        <ele>275</ele>
        <time>2013-07-08T08:00:01Z</time>
      </trkpt>
      <trkpt lat="48.23313" lon="-0.40536">
        <ele>275</ele>
        <time>2013-07-08T08:00:17Z</time>
      </trkpt>
      <trkpt lat="48.23315" lon="-0.40559">
        <ele>256</ele>
        <time>2013-07-08T08:00:31Z</time>
      </trkpt>
      <trkpt lat="48.23319" lon="-0.40583">
        <ele>260</ele>
        <time>2013-07-08T08:00:45Z</time>
      </trkpt>
      <trkpt lat="48.23328" lon="-0.40611">
        <ele>275</ele>
        <time>2013-07-08T08:01:01Z</time>
      </trkpt>
      <trkpt lat="48.23337" lon="-0.40628">
        <ele>273</ele>
        <time>2013-07-08T08:01:12Z</time>
      </trkpt>
      <trkpt lat="48.23339" lon="-0.40657">
        <ele>272</ele>
        <time>2013-07-08T08:01:26Z</time>
      </trkpt>
      <trkpt lat="48.23339" lon="-0.40672">
        <ele>274</ele>
        <time>2013-07-08T08:01:34Z</time>
      </trkpt>
      <trkpt lat="48.23339" lon="-0.40672">
        <ele>274</ele>
        <time>2013-07-08T08:01:41Z</time>
      </trkpt>
      <trkpt lat="48.23339" lon="-0.40672">
        <ele>228.4</ele>
        <time>2013-07-08T08:01:41Z</time>
      </trkpt>
      <trkpt lat="48.23339" lon="-0.40672">
        <ele>228.4</ele>
        <time>2013-07-08T08:01:53Z</time>
      </trkpt>
      <trkpt lat="48.23348" lon="-0.40651">
        <ele>277</ele>
        <time>2013-07-08T08:01:53Z</time>
      </trkpt>
      <trkpt lat="48.23356" lon="-0.40629">
        <ele>281</ele>
        <time>2013-07-08T08:02:10Z</time>
      </trkpt>
      <trkpt lat="48.23365" lon="-0.40609">
        <ele>272</ele>
        <time>2013-07-08T08:02:27Z</time>
      </trkpt>
      <trkpt lat="48.23368" lon="-0.4059">
        <ele>279</ele>
        <time>2013-07-08T08:02:38Z</time>
      </trkpt>
      <trkpt lat="48.2337" lon="-0.40563">
        <ele>282</ele>
        <time>2013-07-08T08:02:49Z</time>
      </trkpt>
      <trkpt lat="48.2337" lon="-0.40542">
        <ele>283</ele>
        <time>2013-07-08T08:02:56Z</time>
      </trkpt>
      <trkpt lat="48.23371" lon="-0.40527">
        <ele>280</ele>
        <time>2013-07-08T08:03:06Z</time>
      </trkpt>
      <trkpt lat="48.23376" lon="-0.40502">
        <ele>282</ele>
        <time>2013-07-08T08:03:21Z</time>
      </trkpt>
      <trkpt lat="48.23382" lon="-0.40475">
        <ele>284</ele>
        <time>2013-07-08T08:03:39Z</time>
      </trkpt>
      <trkpt lat="48.23386" lon="-0.40454">
        <ele>293</ele>
        <time>2013-07-08T08:03:54Z</time>
      </trkpt>
      <trkpt lat="48.23389" lon="-0.40435">
        <ele>293</ele>
        <time>2013-07-08T08:04:05Z</time>
      </trkpt>
      <trkpt lat="48.23394" lon="-0.40417">
        <ele>291</ele>
        <time>2013-07-08T08:04:17Z</time>
      </trkpt>
      <trkpt lat="48.23398" lon="-0.40392">
        <ele>297</ele>
        <time>2013-07-08T08:04:34Z</time>
      </trkpt>
      <trkpt lat="48.23399" lon="-0.40361">
        <ele>297</ele>
        <time>2013-07-08T08:04:52Z</time>
      </trkpt>
      <trkpt lat="48.23397" lon="-0.40337">
        <ele>294</ele>
        <time>2013-07-08T08:05:06Z</time>
      </trkpt>
      <trkpt lat="48.23394" lon="-0.40311">
        <ele>295</ele>
        <time>2013-07-08T08:05:20Z</time>
      </trkpt>
      <trkpt lat="48.23392" lon="-0.40299">
        <ele>293</ele>
        <time>2013-07-08T08:05:28Z</time>
      </trkpt>
      <trkpt lat="48.23392" lon="-0.40276">
        <ele>301</ele>
        <time>2013-07-08T08:05:42Z</time>
      </trkpt>
      <trkpt lat="48.2339" lon="-0.40263">
        <ele>302</ele>
        <time>2013-07-08T08:05:49Z</time>
      </trkpt>
      <trkpt lat="48.23388" lon="-0.40245">
        <ele>303</ele>
        <time>2013-07-08T08:06:00Z</time>
      </trkpt>
      <trkpt lat="48.23388" lon="-0.40218">
        <ele>302</ele>
        <time>2013-07-08T08:06:15Z</time>
      </trkpt>
      <trkpt lat="48.23389" lon="-0.40195">
        <ele>308</ele>
        <time>2013-07-08T08:06:29Z</time>
      </trkpt>
      <trkpt lat="48.23391" lon="-0.40172">
        <ele>305</ele>
        <time>2013-07-08T08:06:42Z</time>
      </trkpt>
      <trkpt lat="48.23393" lon="-0.40141">
        <ele>305</ele>
        <time>2013-07-08T08:07:00Z</time>
      </trkpt>
      <trkpt lat="48.2339" lon="-0.40106">
        <ele>310</ele>
        <time>2013-07-08T08:07:20Z</time>
      </trkpt>
      <trkpt lat="48.23385" lon="-0.40085">
        <ele>312</ele>
        <time>2013-07-08T08:07:34Z</time>
      </trkpt>
      <trkpt lat="48.23385" lon="-0.40077">
        <ele>313</ele>
        <time>2013-07-08T08:07:41Z</time>
      </trkpt>
      <trkpt lat="48.23385" lon="-0.40077">
        <ele>263</ele>
        <time>2013-07-08T08:07:48Z</time>
      </trkpt>
      <trkpt lat="48.23385" lon="-0.40077">
        <ele>263</ele>
        <time>2013-07-08T08:15:52Z</time>
      </trkpt>
      <trkpt lat="48.23415" lon="-0.40069">
        <ele>317</ele>
        <time>2013-07-08T08:15:52Z</time>
      </trkpt>
      <trkpt lat="48.23425" lon="-0.4007">
        <ele>309</ele>
        <time>2013-07-08T08:16:03Z</time>
      </trkpt>
      <trkpt lat="48.23436" lon="-0.40045">
        <ele>310</ele>
        <time>2013-07-08T08:16:22Z</time>
      </trkpt>
      <trkpt lat="48.23448" lon="-0.40025">
        <ele>318</ele>
        <time>2013-07-08T08:16:38Z</time>
      </trkpt>
      <trkpt lat="48.2346" lon="-0.40011">
        <ele>311</ele>
        <time>2013-07-08T08:16:51Z</time>
      </trkpt>
      <trkpt lat="48.23471" lon="-0.40006">
        <ele>314</ele>
        <time>2013-07-08T08:16:58Z</time>
      </trkpt>
      <trkpt lat="48.23478" lon="-0.40002">
        <ele>315</ele>
        <time>2013-07-08T08:17:03Z</time>
      </trkpt>
      <trkpt lat="48.23478" lon="-0.40002">
        <ele>269.4</ele>
        <time>2013-07-08T08:17:11Z</time>
      </trkpt>
      <trkpt lat="48.23478" lon="-0.40002">
        <ele>269.4</ele>
        <time>2013-07-08T08:17:56Z</time>
      </trkpt>
      <trkpt lat="48.23508" lon="-0.39998">
        <ele>317</ele>
        <time>2013-07-08T08:17:56Z</time>
      </trkpt>
      <trkpt lat="48.2353" lon="-0.40009">
        <ele>319</ele>
        <time>2013-07-08T08:18:15Z</time>
      </trkpt>
      <trkpt lat="48.2354" lon="-0.40049">
        <ele>321</ele>
        <time>2013-07-08T08:18:47Z</time>
      </trkpt>
      <trkpt lat="48.23538" lon="-0.40063">
        <ele>321</ele>
        <time>2013-07-08T08:18:57Z</time>
      </trkpt>
      <trkpt lat="48.23531" lon="-0.40097">
        <ele>326</ele>
        <time>2013-07-08T08:19:18Z</time>
      </trkpt>
      <trkpt lat="48.23526" lon="-0.40124">
        <ele>327</ele>
        <time>2013-07-08T08:19:38Z</time>
      </trkpt>
      <trkpt lat="48.23534" lon="-0.40155">
        <ele>328</ele>
        <time>2013-07-08T08:19:55Z</time>
      </trkpt>
      <trkpt lat="48.23529" lon="-0.40176">
        <ele>330</ele>
        <time>2013-07-08T08:20:13Z</time>
      </trkpt>
      <trkpt lat="48.23529" lon="-0.40176">
        <ele>330</ele>
        <time>2013-07-08T08:20:21Z</time>
      </trkpt>
      <trkpt lat="48.23529" lon="-0.40176">
        <ele>284.4</ele>
        <time>2013-07-08T08:20:21Z</time>
      </trkpt>
      <trkpt lat="48.23529" lon="-0.40176">
        <ele>284.4</ele>
        <time>2013-07-08T08:21:12Z</time>
      </trkpt>
      <trkpt lat="48.23538" lon="-0.40192">
        <ele>331</ele>
        <time>2013-07-08T08:21:12Z</time>
      </trkpt>
      <trkpt lat="48.23548" lon="-0.40205">
        <ele>334</ele>
        <time>2013-07-08T08:21:24Z</time>
      </trkpt>
      <trkpt lat="48.2356" lon="-0.40228">
        <ele>337</ele>
        <time>2013-07-08T08:21:41Z</time>
      </trkpt>
      <trkpt lat="48.23567" lon="-0.40252">
        <ele>336</ele>
        <time>2013-07-08T08:21:56Z</time>
      </trkpt>
      <trkpt lat="48.23563" lon="-0.40275">
        <ele>338</ele>
        <time>2013-07-08T08:22:10Z</time>
      </trkpt>
      <trkpt lat="48.23563" lon="-0.40275">
        <ele>338</ele>
        <time>2013-07-08T08:22:18Z</time>
      </trkpt>
      <trkpt lat="48.23563" lon="-0.40275">
        <ele>289.3</ele>
        <time>2013-07-08T08:22:18Z</time>
      </trkpt>
      <trkpt lat="48.23563" lon="-0.40275">
        <ele>289.3</ele>
        <time>2013-07-08T08:27:28Z</time>
      </trkpt>
      <trkpt lat="48.23577" lon="-0.40256">
        <ele>337</ele>
        <time>2013-07-08T08:27:28Z</time>
      </trkpt>
      <trkpt lat="48.23595" lon="-0.40236">
        <ele>343</ele>
        <time>2013-07-08T08:27:55Z</time>
      </trkpt>
      <trkpt lat="48.23604" lon="-0.40216">
        <ele>331</ele>
        <time>2013-07-08T08:28:08Z</time>
      </trkpt>
      <trkpt lat="48.2361" lon="-0.40202">
        <ele>333</ele>
        <time>2013-07-08T08:28:21Z</time>
      </trkpt>
      <trkpt lat="48.2361" lon="-0.40202">
        <ele>285</ele>
        <time>2013-07-08T08:28:28Z</time>
      </trkpt>
      <trkpt lat="48.2361" lon="-0.40202">
        <ele>285</ele>
        <time>2013-07-08T08:28:54Z</time>
      </trkpt>
      <trkpt lat="48.23623" lon="-0.4019">
        <ele>334</ele>
        <time>2013-07-08T08:28:54Z</time>
      </trkpt>
      <trkpt lat="48.23636" lon="-0.40182">
        <ele>328</ele>
        <time>2013-07-08T08:29:07Z</time>
      </trkpt>
      <trkpt lat="48.23639" lon="-0.40167">
        <ele>333</ele>
        <time>2013-07-08T08:29:18Z</time>
      </trkpt>
      <trkpt lat="48.23639" lon="-0.40167">
        <ele>278</ele>
        <time>2013-07-08T08:29:27Z</time>
      </trkpt>
      <trkpt lat="48.23639" lon="-0.40167">
        <ele>278</ele>
        <time>2013-07-08T08:29:31Z</time>
      </trkpt>
      <trkpt lat="48.23649" lon="-0.40156">
        <ele>331</ele>
        <time>2013-07-08T08:29:31Z</time>
      </trkpt>
      <trkpt lat="48.2366" lon="-0.40141">
        <ele>320</ele>
        <time>2013-07-08T08:29:42Z</time>
      </trkpt>
      <trkpt lat="48.23664" lon="-0.40121">
        <ele>317</ele>
        <time>2013-07-08T08:29:55Z</time>
      </trkpt>
      <trkpt lat="48.23664" lon="-0.40121">
        <ele>273.3</ele>
        <time>2013-07-08T08:30:02Z</time>
      </trkpt>
      <trkpt lat="48.23664" lon="-0.40121">
        <ele>273.3</ele>
        <time>2013-07-08T08:30:50Z</time>
      </trkpt>
      <trkpt lat="48.23698" lon="-0.40101">
        <ele>317</ele>
        <time>2013-07-08T08:30:50Z</time>
      </trkpt>
      <trkpt lat="48.23704" lon="-0.40098">
        <ele>309</ele>
        <time>2013-07-08T08:30:58Z</time>
      </trkpt>
      <trkpt lat="48.23704" lon="-0.40098">
        <ele>266.1</ele>
        <time>2013-07-08T08:31:06Z</time>
      </trkpt>
      <trkpt lat="48.23704" lon="-0.40098">
        <ele>266.1</ele>
        <time>2013-07-08T08:31:22Z</time>
      </trkpt>
      <trkpt lat="48.23721" lon="-0.4009">
        <ele>298</ele>
        <time>2013-07-08T08:31:22Z</time>
      </trkpt>
      <trkpt lat="48.23728" lon="-0.40083">
        <ele>306</ele>
        <time>2013-07-08T08:31:31Z</time>
      </trkpt>
      <trkpt lat="48.23728" lon="-0.40083">
        <ele>306</ele>
        <time>2013-07-08T08:31:38Z</time>
      </trkpt>
      <trkpt lat="48.23728" lon="-0.40083">
        <ele>261.5</ele>
        <time>2013-07-08T08:31:38Z</time>
      </trkpt>
      <trkpt lat="48.23728" lon="-0.40083">
        <ele>261.5</ele>
        <time>2013-07-08T08:32:16Z</time>
      </trkpt>
      <trkpt lat="48.23759" lon="-0.40096">
        <ele>293</ele>
        <time>2013-07-08T08:32:16Z</time>
      </trkpt>
      <trkpt lat="48.23775" lon="-0.40103">
        <ele>293</ele>
        <time>2013-07-08T08:32:28Z</time>
      </trkpt>
      <trkpt lat="48.23785" lon="-0.40104">
        <ele>288</ele>
        <time>2013-07-08T08:32:32Z</time>
      </trkpt>
      <trkpt lat="48.23804" lon="-0.40098">
        <ele>287</ele>
        <time>2013-07-08T08:32:46Z</time>
      </trkpt>
      <trkpt lat="48.23813" lon="-0.40088">
        <ele>289</ele>
        <time>2013-07-08T08:32:54Z</time>
      </trkpt>
      <trkpt lat="48.2382" lon="-0.40081">
        <ele>281</ele>
        <time>2013-07-08T08:33:02Z</time>
      </trkpt>
      <trkpt lat="48.2382" lon="-0.40081">
        <ele>239.9</ele>
        <time>2013-07-08T08:33:10Z</time>
      </trkpt>
      <trkpt lat="48.2382" lon="-0.40081">
        <ele>239.9</ele>
        <time>2013-07-08T08:33:15Z</time>
      </trkpt>
      <trkpt lat="48.23824" lon="-0.40069">
        <ele>281</ele>
        <time>2013-07-08T08:33:15Z</time>
      </trkpt>
      <trkpt lat="48.23833" lon="-0.40059">
        <ele>278</ele>
        <time>2013-07-08T08:33:28Z</time>
      </trkpt>
      <trkpt lat="48.23843" lon="-0.40047">
        <ele>282</ele>
        <time>2013-07-08T08:33:40Z</time>
      </trkpt>
      <trkpt lat="48.23855" lon="-0.40023">
        <ele>290</ele>
        <time>2013-07-08T08:33:50Z</time>
      </trkpt>
      <trkpt lat="48.23863" lon="-0.39999">
        <ele>289</ele>
        <time>2013-07-08T08:34:06Z</time>
      </trkpt>
      <trkpt lat="48.23873" lon="-0.39967">
        <ele>289</ele>
        <time>2013-07-08T08:34:22Z</time>
      </trkpt>
      <trkpt lat="48.23872" lon="-0.39947">
        <ele>289</ele>
        <time>2013-07-08T08:34:38Z</time>
      </trkpt>
      <trkpt lat="48.23871" lon="-0.3992">
        <ele>284</ele>
        <time>2013-07-08T08:34:55Z</time>
      </trkpt>
      <trkpt lat="48.23865" lon="-0.39877">
        <ele>287</ele>
        <time>2013-07-08T08:35:12Z</time>
      </trkpt>
      <trkpt lat="48.23859" lon="-0.39859">
        <ele>285</ele>
        <time>2013-07-08T08:35:20Z</time>
      </trkpt>
      <trkpt lat="48.23853" lon="-0.39847">
        <ele>291</ele>
        <time>2013-07-08T08:35:28Z</time>
      </trkpt>
      <trkpt lat="48.23851" lon="-0.39831">
        <ele>281</ele>
        <time>2013-07-08T08:35:39Z</time>
      </trkpt>
      <trkpt lat="48.23848" lon="-0.39809">
        <ele>284</ele>
        <time>2013-07-08T08:35:49Z</time>
      </trkpt>
      <trkpt lat="48.23845" lon="-0.39782">
        <ele>276</ele>
        <time>2013-07-08T08:36:04Z</time>
      </trkpt>
      <trkpt lat="48.23847" lon="-0.39766">
        <ele>284</ele>
        <time>2013-07-08T08:36:17Z</time>
      </trkpt>
      <trkpt lat="48.23851" lon="-0.39742">
        <ele>270</ele>
        <time>2013-07-08T08:36:39Z</time>
      </trkpt>
      <trkpt lat="48.23862" lon="-0.39702">
        <ele>273</ele>
        <time>2013-07-08T08:37:36Z</time>
      </trkpt>
      <trkpt lat="48.23871" lon="-0.39689">
        <ele>276</ele>
        <time>2013-07-08T08:37:53Z</time>
      </trkpt>
      <trkpt lat="48.23893" lon="-0.39683">
        <ele>275</ele>
        <time>2013-07-08T08:38:17Z</time>
      </trkpt>
      <trkpt lat="48.23893" lon="-0.39683">
        <ele>275</ele>
        <time>2013-07-08T08:38:25Z</time>
      </trkpt>
      <trkpt lat="48.23893" lon="-0.39683">
        <ele>214.1</ele>
        <time>2013-07-08T08:38:25Z</time>
      </trkpt>
      <trkpt lat="48.23893" lon="-0.39683">
        <ele>214.1</ele>
        <time>2013-07-08T08:38:58Z</time>
      </trkpt>
      <trkpt lat="48.23903" lon="-0.397">
        <ele>263</ele>
        <time>2013-07-08T08:38:58Z</time>
      </trkpt>
      <trkpt lat="48.23916" lon="-0.39713">
        <ele>256</ele>
        <time>2013-07-08T08:39:14Z</time>
      </trkpt>
      <trkpt lat="48.23925" lon="-0.39728">
        <ele>248</ele>
        <time>2013-07-08T08:39:28Z</time>
      </trkpt>
      <trkpt lat="48.23945" lon="-0.39755">
        <ele>250</ele>
        <time>2013-07-08T08:39:47Z</time>
      </trkpt>
      <trkpt lat="48.23959" lon="-0.39776">
        <ele>257</ele>
        <time>2013-07-08T08:40:01Z</time>
      </trkpt>
      <trkpt lat="48.23967" lon="-0.39804">
        <ele>256</ele>
        <time>2013-07-08T08:40:18Z</time>
      </trkpt>
      <trkpt lat="48.23975" lon="-0.3983">
        <ele>259</ele>
        <time>2013-07-08T08:40:34Z</time>
      </trkpt>
      <trkpt lat="48.23981" lon="-0.39852">
        <ele>259</ele>
        <time>2013-07-08T08:40:46Z</time>
      </trkpt>
      <trkpt lat="48.23993" lon="-0.39889">
        <ele>257</ele>
        <time>2013-07-08T08:41:05Z</time>
      </trkpt>
      <trkpt lat="48.23996" lon="-0.39913">
        <ele>251</ele>
        <time>2013-07-08T08:41:19Z</time>
      </trkpt>
      <trkpt lat="48.23995" lon="-0.39931">
        <ele>262</ele>
        <time>2013-07-08T08:41:38Z</time>
      </trkpt>
      <trkpt lat="48.24002" lon="-0.39972">
        <ele>249</ele>
        <time>2013-07-08T08:42:48Z</time>
      </trkpt>
      <trkpt lat="48.24016" lon="-0.39987">
        <ele>247</ele>
        <time>2013-07-08T08:42:57Z</time>
      </trkpt>
      <trkpt lat="48.24022" lon="-0.39998">
        <ele>258</ele>
        <time>2013-07-08T08:43:09Z</time>
      </trkpt>
      <trkpt lat="48.24031" lon="-0.40034">
        <ele>249</ele>
        <time>2013-07-08T08:43:28Z</time>
      </trkpt>
      <trkpt lat="48.24038" lon="-0.4006">
        <ele>245</ele>
        <time>2013-07-08T08:43:46Z</time>
      </trkpt>
      <trkpt lat="48.24053" lon="-0.40095">
        <ele>244</ele>
        <time>2013-07-08T08:44:04Z</time>
      </trkpt>
      <trkpt lat="48.24057" lon="-0.40107">
        <ele>252</ele>
        <time>2013-07-08T08:44:12Z</time>
      </trkpt>
      <trkpt lat="48.24057" lon="-0.40107">
        <ele>195.9</ele>
        <time>2013-07-08T08:44:17Z</time>
      </trkpt>
      <trkpt lat="48.24057" lon="-0.40107">
        <ele>195.9</ele>
        <time>2013-07-08T08:44:20Z</time>
      </trkpt>
      <trkpt lat="48.24061" lon="-0.40115">
        <ele>245</ele>
        <time>2013-07-08T08:44:20Z</time>
      </trkpt>
      <trkpt lat="48.24072" lon="-0.40129">
        <ele>243</ele>
        <time>2013-07-08T08:44:32Z</time>
      </trkpt>
      <trkpt lat="48.24087" lon="-0.40161">
        <ele>243</ele>
        <time>2013-07-08T08:44:49Z</time>
      </trkpt>
      <trkpt lat="48.24093" lon="-0.40176">
        <ele>237</ele>
        <time>2013-07-08T08:44:58Z</time>
      </trkpt>
      <trkpt lat="48.241" lon="-0.40187">
        <ele>237</ele>
        <time>2013-07-08T08:45:08Z</time>
      </trkpt>
      <trkpt lat="48.24111" lon="-0.4021">
        <ele>233</ele>
        <time>2013-07-08T08:45:24Z</time>
      </trkpt>
      <trkpt lat="48.2412" lon="-0.40223">
        <ele>232</ele>
        <time>2013-07-08T08:45:32Z</time>
      </trkpt>
      <trkpt lat="48.24128" lon="-0.40239">
        <ele>240</ele>
        <time>2013-07-08T08:45:41Z</time>
      </trkpt>
      <trkpt lat="48.24136" lon="-0.40259">
        <ele>231</ele>
        <time>2013-07-08T08:45:52Z</time>
      </trkpt>
      <trkpt lat="48.24148" lon="-0.40269">
        <ele>232</ele>
        <time>2013-07-08T08:46:04Z</time>
      </trkpt>
      <trkpt lat="48.24169" lon="-0.40286">
        <ele>234</ele>
        <time>2013-07-08T08:46:22Z</time>
      </trkpt>
      <trkpt lat="48.24186" lon="-0.40295">
        <ele>233</ele>
        <time>2013-07-08T08:46:34Z</time>
      </trkpt>
      <trkpt lat="48.24203" lon="-0.40303">
        <ele>235</ele>
        <time>2013-07-08T08:46:46Z</time>
      </trkpt>
      <trkpt lat="48.24219" lon="-0.40307">
        <ele>236</ele>
        <time>2013-07-08T08:47:03Z</time>
      </trkpt>
      <trkpt lat="48.24236" lon="-0.4031">
        <ele>240</ele>
        <time>2013-07-08T08:47:21Z</time>
      </trkpt>
      <trkpt lat="48.24249" lon="-0.4031">
        <ele>233</ele>
        <time>2013-07-08T08:47:30Z</time>
      </trkpt>
      <trkpt lat="48.24264" lon="-0.40323">
        <ele>230</ele>
        <time>2013-07-08T08:47:42Z</time>
      </trkpt>
      <trkpt lat="48.24274" lon="-0.40328">
        <ele>239</ele>
        <time>2013-07-08T08:47:49Z</time>
      </trkpt>
      <trkpt lat="48.24293" lon="-0.40332">
        <ele>236</ele>
        <time>2013-07-08T08:48:03Z</time>
      </trkpt>
      <trkpt lat="48.24303" lon="-0.40335">
        <ele>238</ele>
        <time>2013-07-08T08:48:11Z</time>
      </trkpt>
      <trkpt lat="48.24321" lon="-0.40338">
        <ele>238</ele>
        <time>2013-07-08T08:48:30Z</time>
      </trkpt>
      <trkpt lat="48.2434" lon="-0.40343">
        <ele>232</ele>
        <time>2013-07-08T08:48:44Z</time>
      </trkpt>
      <trkpt lat="48.2434" lon="-0.40343">
        <ele>190.9</ele>
        <time>2013-07-08T08:48:53Z</time>
      </trkpt>
      <trkpt lat="48.2434" lon="-0.40343">
        <ele>190.9</ele>
        <time>2013-07-08T08:48:57Z</time>
      </trkpt>
      <trkpt lat="48.24347" lon="-0.40343">
        <ele>238</ele>
        <time>2013-07-08T08:48:57Z</time>
      </trkpt>
      <trkpt lat="48.24356" lon="-0.40339">
        <ele>238</ele>
        <time>2013-07-08T08:49:06Z</time>
      </trkpt>
      <trkpt lat="48.24356" lon="-0.40339">
        <ele>238</ele>
        <time>2013-07-08T08:53:47Z</time>
      </trkpt>
      <trkpt lat="48.24385" lon="-0.40341">
        <ele>237</ele>
        <time>2013-07-08T08:56:24Z</time>
      </trkpt>
      <trkpt lat="48.24399" lon="-0.40348">
        <ele>237</ele>
        <time>2013-07-08T08:56:39Z</time>
      </trkpt>
      <trkpt lat="48.24416" lon="-0.4035">
        <ele>227</ele>
        <time>2013-07-08T08:56:53Z</time>
      </trkpt>
      <trkpt lat="48.24429" lon="-0.40354">
        <ele>232</ele>
        <time>2013-07-08T08:57:05Z</time>
      </trkpt>
      <trkpt lat="48.24453" lon="-0.40352">
        <ele>233</ele>
        <time>2013-07-08T08:57:23Z</time>
      </trkpt>
      <trkpt lat="48.24472" lon="-0.40354">
        <ele>232</ele>
        <time>2013-07-08T08:57:38Z</time>
      </trkpt>
      <trkpt lat="48.24491" lon="-0.40357">
        <ele>229</ele>
        <time>2013-07-08T08:57:55Z</time>
      </trkpt>
      <trkpt lat="48.24508" lon="-0.40363">
        <ele>229</ele>
        <time>2013-07-08T08:58:11Z</time>
      </trkpt>
      <trkpt lat="48.24527" lon="-0.4037">
        <ele>231</ele>
        <time>2013-07-08T08:58:25Z</time>
      </trkpt>
      <trkpt lat="48.24541" lon="-0.40372">
        <ele>225</ele>
        <time>2013-07-08T08:58:39Z</time>
      </trkpt>
      <trkpt lat="48.24558" lon="-0.40381">
        <ele>230</ele>
        <time>2013-07-08T08:58:51Z</time>
      </trkpt>
      <trkpt lat="48.24574" lon="-0.40384">
        <ele>232</ele>
        <time>2013-07-08T08:59:05Z</time>
      </trkpt>
      <trkpt lat="48.24594" lon="-0.4039">
        <ele>230</ele>
        <time>2013-07-08T08:59:21Z</time>
      </trkpt>
      <trkpt lat="48.24616" lon="-0.40387">
        <ele>231</ele>
        <time>2013-07-08T08:59:37Z</time>
      </trkpt>
      <trkpt lat="48.24632" lon="-0.40382">
        <ele>216</ele>
        <time>2013-07-08T08:59:53Z</time>
      </trkpt>
      <trkpt lat="48.24653" lon="-0.40386">
        <ele>216</ele>
        <time>2013-07-08T09:00:08Z</time>
      </trkpt>
      <trkpt lat="48.24676" lon="-0.40388">
        <ele>225</ele>
        <time>2013-07-08T09:00:24Z</time>
      </trkpt>
      <trkpt lat="48.24694" lon="-0.40385">
        <ele>222</ele>
        <time>2013-07-08T09:00:39Z</time>
      </trkpt>
      <trkpt lat="48.24713" lon="-0.4039">
        <ele>229</ele>
        <time>2013-07-08T09:00:55Z</time>
      </trkpt>
      <trkpt lat="48.24723" lon="-0.40392">
        <ele>225</ele>
        <time>2013-07-08T09:01:02Z</time>
      </trkpt>
      <trkpt lat="48.24732" lon="-0.40394">
        <ele>225</ele>
        <time>2013-07-08T09:01:09Z</time>
      </trkpt>
      <trkpt lat="48.24752" lon="-0.40398">
        <ele>220</ele>
        <time>2013-07-08T09:01:26Z</time>
      </trkpt>
      <trkpt lat="48.24777" lon="-0.40407">
        <ele>225</ele>
        <time>2013-07-08T09:01:46Z</time>
      </trkpt>
      <trkpt lat="48.24781" lon="-0.4041">
        <ele>218</ele>
        <time>2013-07-08T09:01:54Z</time>
      </trkpt>
      <trkpt lat="48.24781" lon="-0.4041">
        <ele>179</ele>
        <time>2013-07-08T09:02:01Z</time>
      </trkpt>
      <trkpt lat="48.24781" lon="-0.4041">
        <ele>179</ele>
        <time>2013-07-08T09:02:09Z</time>
      </trkpt>
      <trkpt lat="48.24786" lon="-0.40408">
        <ele>228</ele>
        <time>2013-07-08T09:02:09Z</time>
      </trkpt>
      <trkpt lat="48.24786" lon="-0.40408">
        <ele>228</ele>
        <time>2013-07-08T09:02:17Z</time>
      </trkpt>
      <trkpt lat="48.24786" lon="-0.40408">
        <ele>178.9</ele>
        <time>2013-07-08T09:02:17Z</time>
      </trkpt>
      <trkpt lat="48.24786" lon="-0.40408">
        <ele>178.9</ele>
        <time>2013-07-08T09:03:25Z</time>
      </trkpt>
      <trkpt lat="48.24802" lon="-0.40393">
        <ele>224</ele>
        <time>2013-07-08T09:03:25Z</time>
      </trkpt>
      <trkpt lat="48.24801" lon="-0.40375">
        <ele>222</ele>
        <time>2013-07-08T09:03:37Z</time>
      </trkpt>
      <trkpt lat="48.24805" lon="-0.40347">
        <ele>225</ele>
        <time>2013-07-08T09:03:53Z</time>
      </trkpt>
      <trkpt lat="48.24823" lon="-0.40323">
        <ele>221</ele>
        <time>2013-07-08T09:04:15Z</time>
      </trkpt>
      <trkpt lat="48.24835" lon="-0.40307">
        <ele>225</ele>
        <time>2013-07-08T09:04:26Z</time>
      </trkpt>
      <trkpt lat="48.24846" lon="-0.40291">
        <ele>224</ele>
        <time>2013-07-08T09:04:36Z</time>
      </trkpt>
      <trkpt lat="48.24862" lon="-0.40267">
        <ele>228</ele>
        <time>2013-07-08T09:04:52Z</time>
      </trkpt>
      <trkpt lat="48.24875" lon="-0.40251">
        <ele>222</ele>
        <time>2013-07-08T09:05:07Z</time>
      </trkpt>
      <trkpt lat="48.24884" lon="-0.40238">
        <ele>225</ele>
        <time>2013-07-08T09:05:17Z</time>
      </trkpt>
      <trkpt lat="48.24899" lon="-0.40218">
        <ele>223</ele>
        <time>2013-07-08T09:05:33Z</time>
      </trkpt>
      <trkpt lat="48.24908" lon="-0.40205">
        <ele>225</ele>
        <time>2013-07-08T09:05:49Z</time>
      </trkpt>
      <trkpt lat="48.24916" lon="-0.40197">
        <ele>222</ele>
        <time>2013-07-08T09:05:58Z</time>
      </trkpt>
      <trkpt lat="48.24936" lon="-0.40173">
        <ele>224</ele>
        <time>2013-07-08T09:06:17Z</time>
      </trkpt>
      <trkpt lat="48.24946" lon="-0.40159">
        <ele>217</ele>
        <time>2013-07-08T09:06:30Z</time>
      </trkpt>
      <trkpt lat="48.24954" lon="-0.40152">
        <ele>223</ele>
        <time>2013-07-08T09:06:46Z</time>
      </trkpt>
      <trkpt lat="48.24954" lon="-0.40152">
        <ele>223</ele>
        <time>2013-07-08T09:08:48Z</time>
      </trkpt>
      <trkpt lat="48.2498" lon="-0.40146">
        <ele>226</ele>
        <time>2013-07-08T09:09:01Z</time>
      </trkpt>
      <trkpt lat="48.24998" lon="-0.40136">
        <ele>222</ele>
        <time>2013-07-08T09:09:21Z</time>
      </trkpt>
      <trkpt lat="48.25009" lon="-0.40132">
        <ele>213</ele>
        <time>2013-07-08T09:09:36Z</time>
      </trkpt>
      <trkpt lat="48.25009" lon="-0.40132">
        <ele>171.7</ele>
        <time>2013-07-08T09:09:44Z</time>
      </trkpt>
      <trkpt lat="48.25009" lon="-0.40132">
        <ele>171.7</ele>
        <time>2013-07-08T09:09:52Z</time>
      </trkpt>
      <trkpt lat="48.2501" lon="-0.40129">
        <ele>206</ele>
        <time>2013-07-08T09:09:52Z</time>
      </trkpt>
      <trkpt lat="48.25021" lon="-0.40119">
        <ele>211</ele>
        <time>2013-07-08T09:10:06Z</time>
      </trkpt>
      <trkpt lat="48.25029" lon="-0.40113">
        <ele>212</ele>
        <time>2013-07-08T09:10:14Z</time>
      </trkpt>
      <trkpt lat="48.25051" lon="-0.40098">
        <ele>220</ele>
        <time>2013-07-08T09:10:23Z</time>
      </trkpt>
      <trkpt lat="48.25058" lon="-0.40088">
        <ele>217</ele>
        <time>2013-07-08T09:10:36Z</time>
      </trkpt>
      <trkpt lat="48.25086" lon="-0.40065">
        <ele>216</ele>
        <time>2013-07-08T09:11:27Z</time>
      </trkpt>
      <trkpt lat="48.25095" lon="-0.40059">
        <ele>224</ele>
        <time>2013-07-08T09:11:38Z</time>
      </trkpt>
      <trkpt lat="48.25109" lon="-0.40055">
        <ele>223</ele>
        <time>2013-07-08T09:11:57Z</time>
      </trkpt>
      <trkpt lat="48.25138" lon="-0.40038">
        <ele>220</ele>
        <time>2013-07-08T09:12:31Z</time>
      </trkpt>
      <trkpt lat="48.25152" lon="-0.40026">
        <ele>214</ele>
        <time>2013-07-08T09:12:47Z</time>
      </trkpt>
      <trkpt lat="48.25174" lon="-0.40005">
        <ele>227</ele>
        <time>2013-07-08T09:13:06Z</time>
      </trkpt>
      <trkpt lat="48.2518" lon="-0.40001">
        <ele>227</ele>
        <time>2013-07-08T09:13:12Z</time>
      </trkpt>
      <trkpt lat="48.2519" lon="-0.39996">
        <ele>219</ele>
        <time>2013-07-08T09:13:26Z</time>
      </trkpt>
      <trkpt lat="48.25222" lon="-0.39976">
        <ele>214</ele>
        <time>2013-07-08T09:14:09Z</time>
      </trkpt>
      <trkpt lat="48.25237" lon="-0.39966">
        <ele>208</ele>
        <time>2013-07-08T09:14:15Z</time>
      </trkpt>
      <trkpt lat="48.2526" lon="-0.39955">
        <ele>225</ele>
        <time>2013-07-08T09:14:25Z</time>
      </trkpt>
      <trkpt lat="48.25278" lon="-0.39941">
        <ele>218</ele>
        <time>2013-07-08T09:14:40Z</time>
      </trkpt>
      <trkpt lat="48.25294" lon="-0.3993">
        <ele>220</ele>
        <time>2013-07-08T09:14:55Z</time>
      </trkpt>
      <trkpt lat="48.25311" lon="-0.39906">
        <ele>218</ele>
        <time>2013-07-08T09:15:12Z</time>
      </trkpt>
      <trkpt lat="48.2532" lon="-0.39897">
        <ele>217</ele>
        <time>2013-07-08T09:15:21Z</time>
      </trkpt>
      <trkpt lat="48.25338" lon="-0.39887">
        <ele>224</ele>
        <time>2013-07-08T09:15:36Z</time>
      </trkpt>
      <trkpt lat="48.25346" lon="-0.39886">
        <ele>221</ele>
        <time>2013-07-08T09:15:42Z</time>
      </trkpt>
      <trkpt lat="48.25346" lon="-0.39886">
        <ele>172</ele>
        <time>2013-07-08T09:15:50Z</time>
      </trkpt>
      <trkpt lat="48.25346" lon="-0.39886">
        <ele>172</ele>
        <time>2013-07-08T09:16:23Z</time>
      </trkpt>
      <trkpt lat="48.25374" lon="-0.39876">
        <ele>216</ele>
        <time>2013-07-08T09:16:23Z</time>
      </trkpt>
      <trkpt lat="48.25392" lon="-0.39872">
        <ele>222</ele>
        <time>2013-07-08T09:16:38Z</time>
      </trkpt>
      <trkpt lat="48.25409" lon="-0.39864">
        <ele>226</ele>
        <time>2013-07-08T09:16:51Z</time>
      </trkpt>
      <trkpt lat="48.25427" lon="-0.39857">
        <ele>214</ele>
        <time>2013-07-08T09:17:06Z</time>
      </trkpt>
      <trkpt lat="48.25437" lon="-0.39856">
        <ele>216</ele>
        <time>2013-07-08T09:17:16Z</time>
      </trkpt>
      <trkpt lat="48.25449" lon="-0.39855">
        <ele>218</ele>
        <time>2013-07-08T09:17:25Z</time>
      </trkpt>
      <trkpt lat="48.2547" lon="-0.39851">
        <ele>217</ele>
        <time>2013-07-08T09:17:39Z</time>
      </trkpt>
      <trkpt lat="48.25486" lon="-0.39848">
        <ele>219</ele>
        <time>2013-07-08T09:17:56Z</time>
      </trkpt>
      <trkpt lat="48.25513" lon="-0.39835">
        <ele>216</ele>
        <time>2013-07-08T09:18:12Z</time>
      </trkpt>
      <trkpt lat="48.25515" lon="-0.39834">
        <ele>216</ele>
        <time>2013-07-08T09:18:14Z</time>
      </trkpt>
      <trkpt lat="48.25515" lon="-0.39834">
        <ele>169.5</ele>
        <time>2013-07-08T09:18:19Z</time>
      </trkpt>
      <trkpt lat="48.25515" lon="-0.39834">
        <ele>169.5</ele>
        <time>2013-07-08T09:19:22Z</time>
      </trkpt>
      <trkpt lat="48.25521" lon="-0.39812">
        <ele>220</ele>
        <time>2013-07-08T09:19:22Z</time>
      </trkpt>
      <trkpt lat="48.25515" lon="-0.39782">
        <ele>217</ele>
        <time>2013-07-08T09:19:40Z</time>
      </trkpt>
      <trkpt lat="48.25512" lon="-0.39756">
        <ele>217</ele>
        <time>2013-07-08T09:19:52Z</time>
      </trkpt>
      <trkpt lat="48.25508" lon="-0.3974">
        <ele>214</ele>
        <time>2013-07-08T09:20:01Z</time>
      </trkpt>
      <trkpt lat="48.25507" lon="-0.3972">
        <ele>216</ele>
        <time>2013-07-08T09:20:11Z</time>
      </trkpt>
      <trkpt lat="48.25504" lon="-0.39698">
        <ele>209</ele>
        <time>2013-07-08T09:20:22Z</time>
      </trkpt>
      <trkpt lat="48.25499" lon="-0.3967">
        <ele>211</ele>
        <time>2013-07-08T09:20:38Z</time>
      </trkpt>
      <trkpt lat="48.25496" lon="-0.39644">
        <ele>217</ele>
        <time>2013-07-08T09:20:51Z</time>
      </trkpt>
      <trkpt lat="48.25493" lon="-0.39617">
        <ele>218</ele>
        <time>2013-07-08T09:21:05Z</time>
      </trkpt>
      <trkpt lat="48.2549" lon="-0.39589">
        <ele>213</ele>
        <time>2013-07-08T09:21:21Z</time>
      </trkpt>
      <trkpt lat="48.2549" lon="-0.39568">
        <ele>210</ele>
        <time>2013-07-08T09:21:32Z</time>
      </trkpt>
      <trkpt lat="48.25492" lon="-0.39542">
        <ele>213</ele>
        <time>2013-07-08T09:21:46Z</time>
      </trkpt>
      <trkpt lat="48.25496" lon="-0.39517">
        <ele>212</ele>
        <time>2013-07-08T09:22:00Z</time>
      </trkpt>
      <trkpt lat="48.25497" lon="-0.39504">
        <ele>210</ele>
        <time>2013-07-08T09:22:07Z</time>
      </trkpt>
      <trkpt lat="48.25501" lon="-0.39485">
        <ele>212</ele>
        <time>2013-07-08T09:22:17Z</time>
      </trkpt>
      <trkpt lat="48.25503" lon="-0.39456">
        <ele>213</ele>
        <time>2013-07-08T09:22:32Z</time>
      </trkpt>
      <trkpt lat="48.25503" lon="-0.39456">
        <ele>213</ele>
        <time>2013-07-08T09:22:41Z</time>
      </trkpt>
      <trkpt lat="48.25503" lon="-0.39456">
        <ele>164</ele>
        <time>2013-07-08T09:22:41Z</time>
      </trkpt>
      <trkpt lat="48.25503" lon="-0.39456">
        <ele>164</ele>
        <time>2013-07-08T09:23:16Z</time>
      </trkpt>
      <trkpt lat="48.25505" lon="-0.39431">
        <ele>218</ele>
        <time>2013-07-08T09:23:16Z</time>
      </trkpt>
      <trkpt lat="48.25508" lon="-0.39398">
        <ele>217</ele>
        <time>2013-07-08T09:23:33Z</time>
      </trkpt>
      <trkpt lat="48.2551" lon="-0.39377">
        <ele>223</ele>
        <time>2013-07-08T09:23:47Z</time>
      </trkpt>
      <trkpt lat="48.25516" lon="-0.39351">
        <ele>218</ele>
        <time>2013-07-08T09:24:01Z</time>
      </trkpt>
      <trkpt lat="48.25518" lon="-0.39315">
        <ele>213</ele>
        <time>2013-07-08T09:24:18Z</time>
      </trkpt>
      <trkpt lat="48.2552" lon="-0.39275">
        <ele>217</ele>
        <time>2013-07-08T09:24:35Z</time>
      </trkpt>
      <trkpt lat="48.25519" lon="-0.39255">
        <ele>219</ele>
        <time>2013-07-08T09:24:45Z</time>
      </trkpt>
      <trkpt lat="48.25516" lon="-0.39229">
        <ele>216</ele>
        <time>2013-07-08T09:25:00Z</time>
      </trkpt>
      <trkpt lat="48.25514" lon="-0.39217">
        <ele>216</ele>
        <time>2013-07-08T09:25:10Z</time>
      </trkpt>
      <trkpt lat="48.25514" lon="-0.39217">
        <ele>166.1</ele>
        <time>2013-07-08T09:25:17Z</time>
      </trkpt>
      <trkpt lat="48.25514" lon="-0.39217">
        <ele>166.1</ele>
        <time>2013-07-08T09:25:21Z</time>
      </trkpt>
      <trkpt lat="48.25513" lon="-0.39214">
        <ele>216</ele>
        <time>2013-07-08T09:25:21Z</time>
      </trkpt>
      <trkpt lat="48.25512" lon="-0.3921">
        <ele>215</ele>
        <time>2013-07-08T09:25:24Z</time>
      </trkpt>
      <trkpt lat="48.25512" lon="-0.3921">
        <ele>166.2</ele>
        <time>2013-07-08T09:25:33Z</time>
      </trkpt>
      <trkpt lat="48.25512" lon="-0.3921">
        <ele>166.2</ele>
        <time>2013-07-08T09:47:06Z</time>
      </trkpt>
      <trkpt lat="48.25501" lon="-0.39164">
        <ele>215</ele>
        <time>2013-07-08T09:47:06Z</time>
      </trkpt>
      <trkpt lat="48.25498" lon="-0.39148">
        <ele>217</ele>
        <time>2013-07-08T09:47:15Z</time>
      </trkpt>
      <trkpt lat="48.25493" lon="-0.39113">
        <ele>219</ele>
        <time>2013-07-08T09:47:31Z</time>
      </trkpt>
      <trkpt lat="48.25488" lon="-0.39088">
        <ele>217</ele>
        <time>2013-07-08T09:47:44Z</time>
      </trkpt>
      <trkpt lat="48.25484" lon="-0.39066">
        <ele>218</ele>
        <time>2013-07-08T09:47:55Z</time>
      </trkpt>
      <trkpt lat="48.25482" lon="-0.39053">
        <ele>221</ele>
        <time>2013-07-08T09:48:02Z</time>
      </trkpt>
      <trkpt lat="48.25478" lon="-0.3903">
        <ele>216</ele>
        <time>2013-07-08T09:48:13Z</time>
      </trkpt>
      <trkpt lat="48.25473" lon="-0.39003">
        <ele>214</ele>
        <time>2013-07-08T09:48:26Z</time>
      </trkpt>
      <trkpt lat="48.25467" lon="-0.3897">
        <ele>218</ele>
        <time>2013-07-08T09:48:42Z</time>
      </trkpt>
      <trkpt lat="48.25462" lon="-0.38953">
        <ele>218</ele>
        <time>2013-07-08T09:48:52Z</time>
      </trkpt>
      <trkpt lat="48.25457" lon="-0.38933">
        <ele>217</ele>
        <time>2013-07-08T09:49:02Z</time>
      </trkpt>
      <trkpt lat="48.25452" lon="-0.38904">
        <ele>223</ele>
        <time>2013-07-08T09:49:16Z</time>
      </trkpt>
      <trkpt lat="48.25446" lon="-0.38876">
        <ele>221</ele>
        <time>2013-07-08T09:49:30Z</time>
      </trkpt>
      <trkpt lat="48.25441" lon="-0.38851">
        <ele>215</ele>
        <time>2013-07-08T09:49:42Z</time>
      </trkpt>
      <trkpt lat="48.25433" lon="-0.38818">
        <ele>220</ele>
        <time>2013-07-08T09:49:59Z</time>
      </trkpt>
      <trkpt lat="48.25427" lon="-0.38788">
        <ele>215</ele>
        <time>2013-07-08T09:50:13Z</time>
      </trkpt>
      <trkpt lat="48.25424" lon="-0.38772">
        <ele>219</ele>
        <time>2013-07-08T09:50:21Z</time>
      </trkpt>
      <trkpt lat="48.25419" lon="-0.38743">
        <ele>219</ele>
        <time>2013-07-08T09:50:35Z</time>
      </trkpt>
      <trkpt lat="48.25414" lon="-0.3872">
        <ele>215</ele>
        <time>2013-07-08T09:50:49Z</time>
      </trkpt>
      <trkpt lat="48.25409" lon="-0.3869">
        <ele>216</ele>
        <time>2013-07-08T09:51:04Z</time>
      </trkpt>
      <trkpt lat="48.25404" lon="-0.38658">
        <ele>217</ele>
        <time>2013-07-08T09:51:23Z</time>
      </trkpt>
      <trkpt lat="48.25395" lon="-0.38625">
        <ele>216</ele>
        <time>2013-07-08T09:51:40Z</time>
      </trkpt>
      <trkpt lat="48.25392" lon="-0.3861">
        <ele>218</ele>
        <time>2013-07-08T09:51:49Z</time>
      </trkpt>
      <trkpt lat="48.25387" lon="-0.38587">
        <ele>225</ele>
        <time>2013-07-08T09:52:10Z</time>
      </trkpt>
      <trkpt lat="48.25377" lon="-0.38543">
        <ele>222</ele>
        <time>2013-07-08T09:52:45Z</time>
      </trkpt>
      <trkpt lat="48.25371" lon="-0.38513">
        <ele>216</ele>
        <time>2013-07-08T09:53:00Z</time>
      </trkpt>
      <trkpt lat="48.25366" lon="-0.38486">
        <ele>218</ele>
        <time>2013-07-08T09:53:15Z</time>
      </trkpt>
      <trkpt lat="48.25362" lon="-0.38461">
        <ele>219</ele>
        <time>2013-07-08T09:53:29Z</time>
      </trkpt>
      <trkpt lat="48.25358" lon="-0.38443">
        <ele>220</ele>
        <time>2013-07-08T09:53:39Z</time>
      </trkpt>
      <trkpt lat="48.25353" lon="-0.38416">
        <ele>220</ele>
        <time>2013-07-08T09:53:52Z</time>
      </trkpt>
      <trkpt lat="48.25349" lon="-0.38392">
        <ele>220</ele>
        <time>2013-07-08T09:54:06Z</time>
      </trkpt>
      <trkpt lat="48.25343" lon="-0.3836">
        <ele>217</ele>
        <time>2013-07-08T09:54:21Z</time>
      </trkpt>
      <trkpt lat="48.25339" lon="-0.38341">
        <ele>223</ele>
        <time>2013-07-08T09:54:31Z</time>
      </trkpt>
      <trkpt lat="48.25332" lon="-0.38312">
        <ele>222</ele>
        <time>2013-07-08T09:54:45Z</time>
      </trkpt>
      <trkpt lat="48.25325" lon="-0.38287">
        <ele>219</ele>
        <time>2013-07-08T09:54:58Z</time>
      </trkpt>
      <trkpt lat="48.2532" lon="-0.38273">
        <ele>221</ele>
        <time>2013-07-08T09:55:07Z</time>
      </trkpt>
      <trkpt lat="48.25316" lon="-0.38248">
        <ele>220</ele>
        <time>2013-07-08T09:55:18Z</time>
      </trkpt>
      <trkpt lat="48.25312" lon="-0.38222">
        <ele>219</ele>
        <time>2013-07-08T09:55:30Z</time>
      </trkpt>
      <trkpt lat="48.25308" lon="-0.38205">
        <ele>222</ele>
        <time>2013-07-08T09:55:39Z</time>
      </trkpt>
      <trkpt lat="48.25301" lon="-0.38175">
        <ele>219</ele>
        <time>2013-07-08T09:55:54Z</time>
      </trkpt>
      <trkpt lat="48.25299" lon="-0.38153">
        <ele>223</ele>
        <time>2013-07-08T09:56:06Z</time>
      </trkpt>
      <trkpt lat="48.25293" lon="-0.38127">
        <ele>225</ele>
        <time>2013-07-08T09:56:20Z</time>
      </trkpt>
      <trkpt lat="48.2529" lon="-0.38103">
        <ele>220</ele>
        <time>2013-07-08T09:56:30Z</time>
      </trkpt>
      <trkpt lat="48.25289" lon="-0.38071">
        <ele>220</ele>
        <time>2013-07-08T09:56:44Z</time>
      </trkpt>
      <trkpt lat="48.2529" lon="-0.38049">
        <ele>219</ele>
        <time>2013-07-08T09:56:54Z</time>
      </trkpt>
      <trkpt lat="48.2529" lon="-0.38033">
        <ele>218</ele>
        <time>2013-07-08T09:57:02Z</time>
      </trkpt>
      <trkpt lat="48.25289" lon="-0.38002">
        <ele>219</ele>
        <time>2013-07-08T09:57:17Z</time>
      </trkpt>
      <trkpt lat="48.25289" lon="-0.37964">
        <ele>217</ele>
        <time>2013-07-08T09:57:34Z</time>
      </trkpt>
      <trkpt lat="48.25289" lon="-0.37937">
        <ele>219</ele>
        <time>2013-07-08T09:57:48Z</time>
      </trkpt>
      <trkpt lat="48.25289" lon="-0.37901">
        <ele>219</ele>
        <time>2013-07-08T09:58:04Z</time>
      </trkpt>
      <trkpt lat="48.25289" lon="-0.37875">
        <ele>220</ele>
        <time>2013-07-08T09:58:16Z</time>
      </trkpt>
      <trkpt lat="48.25289" lon="-0.37853">
        <ele>219</ele>
        <time>2013-07-08T09:58:26Z</time>
      </trkpt>
      <trkpt lat="48.25289" lon="-0.3784">
        <ele>220</ele>
        <time>2013-07-08T09:58:32Z</time>
      </trkpt>
      <trkpt lat="48.25288" lon="-0.37806">
        <ele>220</ele>
        <time>2013-07-08T09:58:48Z</time>
      </trkpt>
      <trkpt lat="48.25287" lon="-0.37774">
        <ele>222</ele>
        <time>2013-07-08T09:59:05Z</time>
      </trkpt>
      <trkpt lat="48.25287" lon="-0.37736">
        <ele>227</ele>
        <time>2013-07-08T09:59:24Z</time>
      </trkpt>
      <trkpt lat="48.25288" lon="-0.37706">
        <ele>229</ele>
        <time>2013-07-08T09:59:38Z</time>
      </trkpt>
      <trkpt lat="48.25288" lon="-0.37694">
        <ele>229</ele>
        <time>2013-07-08T09:59:45Z</time>
      </trkpt>
      <trkpt lat="48.2529" lon="-0.37658">
        <ele>229</ele>
        <time>2013-07-08T10:00:02Z</time>
      </trkpt>
      <trkpt lat="48.25291" lon="-0.3764">
        <ele>223</ele>
        <time>2013-07-08T10:00:09Z</time>
      </trkpt>
      <trkpt lat="48.25289" lon="-0.37621">
        <ele>228</ele>
        <time>2013-07-08T10:00:19Z</time>
      </trkpt>
      <trkpt lat="48.25291" lon="-0.37593">
        <ele>223</ele>
        <time>2013-07-08T10:00:32Z</time>
      </trkpt>
      <trkpt lat="48.25292" lon="-0.37575">
        <ele>233</ele>
        <time>2013-07-08T10:00:42Z</time>
      </trkpt>
      <trkpt lat="48.25287" lon="-0.3755">
        <ele>231</ele>
        <time>2013-07-08T10:00:54Z</time>
      </trkpt>
      <trkpt lat="48.25286" lon="-0.37526">
        <ele>226</ele>
        <time>2013-07-08T10:01:06Z</time>
      </trkpt>
      <trkpt lat="48.25282" lon="-0.37495">
        <ele>225</ele>
        <time>2013-07-08T10:01:21Z</time>
      </trkpt>
      <trkpt lat="48.25277" lon="-0.37474">
        <ele>229</ele>
        <time>2013-07-08T10:01:33Z</time>
      </trkpt>
      <trkpt lat="48.25269" lon="-0.37451">
        <ele>228</ele>
        <time>2013-07-08T10:01:46Z</time>
      </trkpt>
      <trkpt lat="48.25267" lon="-0.37446">
        <ele>226</ele>
        <time>2013-07-08T10:01:49Z</time>
      </trkpt>
      <trkpt lat="48.25267" lon="-0.37446">
        <ele>174</ele>
        <time>2013-07-08T10:01:57Z</time>
      </trkpt>
      <trkpt lat="48.25267" lon="-0.37446">
        <ele>174</ele>
        <time>2013-07-08T10:02:30Z</time>
      </trkpt>
      <trkpt lat="48.25258" lon="-0.37425">
        <ele>225</ele>
        <time>2013-07-08T10:02:30Z</time>
      </trkpt>
      <trkpt lat="48.25247" lon="-0.37394">
        <ele>224</ele>
        <time>2013-07-08T10:02:46Z</time>
      </trkpt>
      <trkpt lat="48.25238" lon="-0.37379">
        <ele>225</ele>
        <time>2013-07-08T10:02:56Z</time>
      </trkpt>
      <trkpt lat="48.25224" lon="-0.37354">
        <ele>225</ele>
        <time>2013-07-08T10:03:12Z</time>
      </trkpt>
      <trkpt lat="48.25215" lon="-0.37334">
        <ele>225</ele>
        <time>2013-07-08T10:03:23Z</time>
      </trkpt>
      <trkpt lat="48.25206" lon="-0.3731">
        <ele>224</ele>
        <time>2013-07-08T10:03:36Z</time>
      </trkpt>
      <trkpt lat="48.25199" lon="-0.37292">
        <ele>228</ele>
        <time>2013-07-08T10:03:46Z</time>
      </trkpt>
      <trkpt lat="48.25193" lon="-0.37271">
        <ele>226</ele>
        <time>2013-07-08T10:03:57Z</time>
      </trkpt>
      <trkpt lat="48.25189" lon="-0.37248">
        <ele>227</ele>
        <time>2013-07-08T10:04:09Z</time>
      </trkpt>
      <trkpt lat="48.25182" lon="-0.37219">
        <ele>222</ele>
        <time>2013-07-08T10:04:23Z</time>
      </trkpt>
      <trkpt lat="48.25176" lon="-0.37194">
        <ele>224</ele>
        <time>2013-07-08T10:04:37Z</time>
      </trkpt>
      <trkpt lat="48.25169" lon="-0.37169">
        <ele>226</ele>
        <time>2013-07-08T10:04:49Z</time>
      </trkpt>
      <trkpt lat="48.25165" lon="-0.3715">
        <ele>225</ele>
        <time>2013-07-08T10:04:59Z</time>
      </trkpt>
      <trkpt lat="48.2516" lon="-0.37132">
        <ele>227</ele>
        <time>2013-07-08T10:05:09Z</time>
      </trkpt>
      <trkpt lat="48.25154" lon="-0.37105">
        <ele>226</ele>
        <time>2013-07-08T10:05:23Z</time>
      </trkpt>
      <trkpt lat="48.25147" lon="-0.37082">
        <ele>227</ele>
        <time>2013-07-08T10:05:35Z</time>
      </trkpt>
      <trkpt lat="48.25141" lon="-0.37065">
        <ele>226</ele>
        <time>2013-07-08T10:05:45Z</time>
      </trkpt>
      <trkpt lat="48.25135" lon="-0.37047">
        <ele>229</ele>
        <time>2013-07-08T10:05:56Z</time>
      </trkpt>
      <trkpt lat="48.25128" lon="-0.37019">
        <ele>230</ele>
        <time>2013-07-08T10:06:09Z</time>
      </trkpt>
      <trkpt lat="48.25122" lon="-0.37">
        <ele>229</ele>
        <time>2013-07-08T10:06:20Z</time>
      </trkpt>
      <trkpt lat="48.25114" lon="-0.3697">
        <ele>233</ele>
        <time>2013-07-08T10:06:36Z</time>
      </trkpt>
      <trkpt lat="48.25109" lon="-0.36945">
        <ele>238</ele>
        <time>2013-07-08T10:06:50Z</time>
      </trkpt>
      <trkpt lat="48.25104" lon="-0.36928">
        <ele>234</ele>
        <time>2013-07-08T10:06:59Z</time>
      </trkpt>
      <trkpt lat="48.25097" lon="-0.36897">
        <ele>226</ele>
        <time>2013-07-08T10:07:13Z</time>
      </trkpt>
      <trkpt lat="48.25095" lon="-0.36886">
        <ele>233</ele>
        <time>2013-07-08T10:07:18Z</time>
      </trkpt>
      <trkpt lat="48.25088" lon="-0.36856">
        <ele>235</ele>
        <time>2013-07-08T10:07:33Z</time>
      </trkpt>
      <trkpt lat="48.25084" lon="-0.36838">
        <ele>232</ele>
        <time>2013-07-08T10:07:43Z</time>
      </trkpt>
      <trkpt lat="48.25078" lon="-0.36819">
        <ele>230</ele>
        <time>2013-07-08T10:07:53Z</time>
      </trkpt>
      <trkpt lat="48.25071" lon="-0.36793">
        <ele>234</ele>
        <time>2013-07-08T10:08:06Z</time>
      </trkpt>
      <trkpt lat="48.25069" lon="-0.36778">
        <ele>234</ele>
        <time>2013-07-08T10:08:13Z</time>
      </trkpt>
      <trkpt lat="48.2506" lon="-0.3675">
        <ele>232</ele>
        <time>2013-07-08T10:08:29Z</time>
      </trkpt>
      <trkpt lat="48.25056" lon="-0.36723">
        <ele>234</ele>
        <time>2013-07-08T10:08:43Z</time>
      </trkpt>
      <trkpt lat="48.25052" lon="-0.36696">
        <ele>234</ele>
        <time>2013-07-08T10:08:56Z</time>
      </trkpt>
      <trkpt lat="48.2504" lon="-0.36674">
        <ele>230</ele>
        <time>2013-07-08T10:09:10Z</time>
      </trkpt>
      <trkpt lat="48.25038" lon="-0.36648">
        <ele>233</ele>
        <time>2013-07-08T10:09:21Z</time>
      </trkpt>
      <trkpt lat="48.25046" lon="-0.36627">
        <ele>232</ele>
        <time>2013-07-08T10:09:33Z</time>
      </trkpt>
      <trkpt lat="48.25055" lon="-0.3659">
        <ele>229</ele>
        <time>2013-07-08T10:10:06Z</time>
      </trkpt>
      <trkpt lat="48.25062" lon="-0.36568">
        <ele>232</ele>
        <time>2013-07-08T10:10:19Z</time>
      </trkpt>
      <trkpt lat="48.25072" lon="-0.36541">
        <ele>233</ele>
        <time>2013-07-08T10:10:34Z</time>
      </trkpt>
      <trkpt lat="48.25079" lon="-0.36517">
        <ele>230</ele>
        <time>2013-07-08T10:10:46Z</time>
      </trkpt>
      <trkpt lat="48.2509" lon="-0.36481">
        <ele>231</ele>
        <time>2013-07-08T10:11:04Z</time>
      </trkpt>
      <trkpt lat="48.25093" lon="-0.36449">
        <ele>231</ele>
        <time>2013-07-08T10:11:21Z</time>
      </trkpt>
      <trkpt lat="48.25095" lon="-0.36418">
        <ele>235</ele>
        <time>2013-07-08T10:11:37Z</time>
      </trkpt>
      <trkpt lat="48.25097" lon="-0.36392">
        <ele>232</ele>
        <time>2013-07-08T10:11:53Z</time>
      </trkpt>
      <trkpt lat="48.25106" lon="-0.36357">
        <ele>227</ele>
        <time>2013-07-08T10:13:17Z</time>
      </trkpt>
      <trkpt lat="48.25105" lon="-0.36336">
        <ele>232</ele>
        <time>2013-07-08T10:13:29Z</time>
      </trkpt>
      <trkpt lat="48.25093" lon="-0.36309">
        <ele>232</ele>
        <time>2013-07-08T10:13:45Z</time>
      </trkpt>
      <trkpt lat="48.25088" lon="-0.36277">
        <ele>237</ele>
        <time>2013-07-08T10:14:02Z</time>
      </trkpt>
      <trkpt lat="48.25079" lon="-0.36253">
        <ele>235</ele>
        <time>2013-07-08T10:14:18Z</time>
      </trkpt>
      <trkpt lat="48.2508" lon="-0.36228">
        <ele>236</ele>
        <time>2013-07-08T10:14:32Z</time>
      </trkpt>
      <trkpt lat="48.25092" lon="-0.36206">
        <ele>238</ele>
        <time>2013-07-08T10:14:46Z</time>
      </trkpt>
      <trkpt lat="48.25103" lon="-0.36196">
        <ele>240</ele>
        <time>2013-07-08T10:14:57Z</time>
      </trkpt>
      <trkpt lat="48.2512" lon="-0.36178">
        <ele>236</ele>
        <time>2013-07-08T10:15:11Z</time>
      </trkpt>
      <trkpt lat="48.2513" lon="-0.36156">
        <ele>237</ele>
        <time>2013-07-08T10:15:26Z</time>
      </trkpt>
      <trkpt lat="48.25142" lon="-0.36122">
        <ele>235</ele>
        <time>2013-07-08T10:15:43Z</time>
      </trkpt>
      <trkpt lat="48.25152" lon="-0.36106">
        <ele>243</ele>
        <time>2013-07-08T10:15:58Z</time>
      </trkpt>
      <trkpt lat="48.2516" lon="-0.36092">
        <ele>251</ele>
        <time>2013-07-08T10:16:10Z</time>
      </trkpt>
      <trkpt lat="48.25182" lon="-0.36066">
        <ele>247</ele>
        <time>2013-07-08T10:16:27Z</time>
      </trkpt>
      <trkpt lat="48.25195" lon="-0.36046">
        <ele>246</ele>
        <time>2013-07-08T10:16:40Z</time>
      </trkpt>
      <trkpt lat="48.25207" lon="-0.36027">
        <ele>249</ele>
        <time>2013-07-08T10:16:54Z</time>
      </trkpt>
      <trkpt lat="48.25217" lon="-0.36003">
        <ele>247</ele>
        <time>2013-07-08T10:17:08Z</time>
      </trkpt>
      <trkpt lat="48.25224" lon="-0.35979">
        <ele>252</ele>
        <time>2013-07-08T10:17:21Z</time>
      </trkpt>
      <trkpt lat="48.25235" lon="-0.35968">
        <ele>253</ele>
        <time>2013-07-08T10:17:39Z</time>
      </trkpt>
      <trkpt lat="48.25235" lon="-0.35968">
        <ele>201.4</ele>
        <time>2013-07-08T10:20:47Z</time>
      </trkpt>
      <trkpt lat="48.25235" lon="-0.35968">
        <ele>201.4</ele>
        <time>2013-07-08T10:20:48Z</time>
      </trkpt>
    </trkseg>
  </trk>
</gpx>